Observation data for Fort Lewis CO on 10/18/2019      Previous  Date       Current Mesonet Observations  Soil Data  Daily Summary Page  Observations in Plain Language
KFL1 180500Z 30006KT 08/M04 A2994 RMK A01 T00801044  RH  041%=      5-min Rain = 0
KFL1 180501Z 30006KT 08/M05 A2994 RMK A01 T00781045  RH  041%=      5-min Rain = 0
KFL1 180502Z 30005KT 08/M05 A2994 RMK A01 T00771045  RH  042%=      5-min Rain = 0
KFL1 180503Z 31005KT 08/M05 A2994 RMK A01 T00781045  RH  041%=      5-min Rain = 0
KFL1 180504Z 30006KT 08/M04 A2994 RMK A01 T00811042  RH  042%=      5-min Rain = 0
KFL1 180505Z 30006KT 08/M04 A2994 RMK A01 T00781044  RH  042%=      5-min Rain = 0
KFL1 180506Z 30006KT 08/M04 A2994 RMK A01 T00761044  RH  042%=      5-min Rain = 0
KFL1 180507Z 30006KT 07/M04 A2994 RMK A01 T00741044  RH  043%=      5-min Rain = 0
KFL1 180508Z 30006KT 08/M04 A2994 RMK A01 T00751043  RH  043%=      5-min Rain = 0
KFL1 180509Z 31006KT 07/M04 A2994 RMK A01 T00741044  RH  043%=      5-min Rain = 0
KFL1 180510Z 31006KT 07/M04 A2994 RMK A01 T00731044  RH  043%=      5-min Rain = 0
KFL1 180511Z 31006KT 07/M04 A2994 RMK A01 T00731044  RH  043%=      5-min Rain = 0
KFL1 180512Z 31006KT 07/M04 A2994 RMK A01 T00721043  RH  044%=      5-min Rain = 0
KFL1 180513Z 31006KT 07/M04 A2994 RMK A01 T00701043  RH  044%=      5-min Rain = 0
KFL1 180514Z 30006KT 07/M04 A2994 RMK A01 T00711042  RH  044%=      5-min Rain = 0
KFL1 180515Z 31006KT 07/M04 A2994 RMK A01 T00701043  RH  044%=      5-min Rain = 0
KFL1 180516Z 31006KT 07/M04 A2994 RMK A01 T00701043  RH  044%=      5-min Rain = 0
KFL1 180517Z 31005KT 07/M04 A2994 RMK A01 T00711042  RH  044%=      5-min Rain = 0
KFL1 180518Z 31005KT 07/M04 A2994 RMK A01 T00721042  RH  044%=      5-min Rain = 0
KFL1 180519Z 31005KT 07/M04 A2994 RMK A01 T00721042  RH  044%=      5-min Rain = 0
KFL1 180520Z 32004KT 07/M04 A2994 RMK A01 T00721042  RH  044%=      5-min Rain = 0
KFL1 180521Z 32004KT 07/M04 A2994 RMK A01 T00741041  RH  044%=      5-min Rain = 0
KFL1 180522Z 32005KT 07/M04 A2994 RMK A01 T00711040  RH  045%=      5-min Rain = 0
KFL1 180523Z 31005KT 06/M04 A2994 RMK A01 T00611042  RH  048%=      5-min Rain = 0
KFL1 180524Z 31005KT 06/M04 A2994 RMK A01 T00571042  RH  049%=      5-min Rain = 0
KFL1 180525Z 32006KT 05/M04 A2994 RMK A01 T00541041  RH  050%=      5-min Rain = 0
KFL1 180526Z 31006KT 05/M04 A2994 RMK A01 T00531039  RH  052%=      5-min Rain = 0
KFL1 180527Z 31006KT 05/M04 A2994 RMK A01 T00501038  RH  053%=      5-min Rain = 0
KFL1 180528Z 32005KT 05/M04 A2994 RMK A01 T00471039  RH  054%=      5-min Rain = 0
KFL1 180529Z 32006KT 05/M04 A2994 RMK A01 T00471038  RH  054%=      5-min Rain = 0
KFL1 180530Z 32006KT 05/M04 A2994 RMK A01 T00451038  RH  055%=      5-min Rain = 0
KFL1 180531Z 32006KT 04/M04 A2994 RMK A01 T00431039  RH  055%=      5-min Rain = 0
KFL1 180532Z 32006KT 04/M04 A2994 RMK A01 T00421038  RH  056%=      5-min Rain = 0
KFL1 180533Z 32005KT 04/M04 A2994 RMK A01 T00401038  RH  057%=      5-min Rain = 0
KFL1 180534Z 32005KT 04/M04 A2994 RMK A01 T00411038  RH  057%=      5-min Rain = 0
KFL1 180535Z 32006KT 04/M04 A2994 RMK A01 T00421038  RH  056%=      5-min Rain = 0
KFL1 180536Z 32006KT 04/M04 A2994 RMK A01 T00431038  RH  056%=      5-min Rain = 0
KFL1 180537Z 32006KT 04/M04 A2994 RMK A01 T00401039  RH  056%=      5-min Rain = 0
KFL1 180538Z 32006KT 04/M04 A2994 RMK A01 T00381038  RH  057%=      5-min Rain = 0
KFL1 180539Z 32006KT 04/M04 A2994 RMK A01 T00361038  RH  058%=      5-min Rain = 0
KFL1 180540Z 32006KT 04/M04 A2994 RMK A01 T00351038  RH  059%=      5-min Rain = 0
KFL1 180541Z 32006KT 04/M04 A2994 RMK A01 T00351038  RH  059%=      5-min Rain = 0
KFL1 180542Z 32007KT 04/M04 A2994 RMK A01 T00371037  RH  058%=      5-min Rain = 0
KFL1 180543Z 32006KT 04/M04 A2994 RMK A01 T00381036  RH  058%=      5-min Rain = 0
KFL1 180544Z 32006KT 04/M04 A2994 RMK A01 T00391036  RH  058%=      5-min Rain = 0
KFL1 180545Z 32006KT 04/M04 A2994 RMK A01 T00411037  RH  057%=      5-min Rain = 0
KFL1 180546Z 32006KT 04/M04 A2994 RMK A01 T00431037  RH  056%=      5-min Rain = 0
KFL1 180547Z 32006KT 05/M04 A2994 RMK A01 T00451036  RH  056%=      5-min Rain = 0
KFL1 180548Z 32006KT 04/M04 A2994 RMK A01 T00441038  RH  055%=      5-min Rain = 0
KFL1 180549Z 32006KT 05/M04 A2994 RMK A01 T00471036  RH  055%=      5-min Rain = 0
KFL1 180550Z 31006KT 05/M04 A2994 RMK A01 T00461038  RH  055%=      5-min Rain = 0
KFL1 180551Z 31005KT 05/M04 A2994 RMK A01 T00501036  RH  054%=      5-min Rain = 0
KFL1 180552Z 32006KT 05/M04 A2994 RMK A01 T00531036  RH  052%=      5-min Rain = 0
KFL1 180553Z 32006KT 06/M04 A2994 RMK A01 T00551038  RH  051%=      5-min Rain = 0
KFL1 180554Z 33006KT 06/M04 A2994 RMK A01 T00561036  RH  051%=      5-min Rain = 0
KFL1 180555Z 32006KT 05/M04 A2994 RMK A01 T00511038  RH  053%=      5-min Rain = 0
KFL1 180556Z 32005KT 05/M04 A2994 RMK A01 T00501037  RH  053%=      5-min Rain = 0
KFL1 180557Z 31006KT 05/M04 A2994 RMK A01 T00511036  RH  053%=      5-min Rain = 0
KFL1 180558Z 32005KT 05/M04 A2994 RMK A01 T00501037  RH  053%=      5-min Rain = 0
KFL1 180559Z 32006KT 05/M04 A2994 RMK A01 T00531036  RH  053%=      5-min Rain = 0
KFL1 180600Z 31006KT 05/M04 A2994 RMK A01 T00541036  RH  052%=      5-min Rain = 0
KFL1 180601Z 30006KT 05/M04 A2994 RMK A01 T00531037  RH  052%=      5-min Rain = 0
KFL1 180602Z 30005KT 05/M04 A2994 RMK A01 T00511038  RH  053%=      5-min Rain = 0
KFL1 180603Z 30005KT 05/M04 A2994 RMK A01 T00511037  RH  053%=      5-min Rain = 0
KFL1 180604Z 28007KT 05/M04 A2994 RMK A01 T00531037  RH  052%=      5-min Rain = 0
KFL1 180605Z 27007KT 06/M03 A2994 RMK A01 T00631028  RH  052%=      5-min Rain = 0
KFL1 180606Z 28006KT 08/M02 A2994 RMK A01 T00761024  RH  049%=      5-min Rain = 0
KFL1 180607Z 27005KT 08/M03 A2994 RMK A01 T00811029  RH  046%=      5-min Rain = 0
KFL1 180608Z 27006KT 08/M03 A2994 RMK A01 T00801034  RH  045%=      5-min Rain = 0
KFL1 180609Z 26008KT 08/M03 A2994 RMK A01 T00811031  RH  045%=      5-min Rain = 0
KFL1 180610Z 25008KT 08/M03 A2994 RMK A01 T00821030  RH  045%=      5-min Rain = 0
KFL1 180611Z 26008KT 09/M03 A2994 RMK A01 T00861026  RH  045%=      5-min Rain = 0
KFL1 180612Z 25009KT 09/M02 A2994 RMK A01 T00891024  RH  045%=      5-min Rain = 0
KFL1 180613Z 26010KT 09/M02 A2993 RMK A01 T00901024  RH  045%=      5-min Rain = 0
KFL1 180614Z 25008G15KT 09/M02 A2994 RMK A01 T00931021  RH  045%=      5-min Rain = 0
KFL1 180615Z 26008KT 09/M02 A2994 RMK A01 T00931023  RH  044%=      5-min Rain = 0
KFL1 180616Z 26007KT 10/M02 A2994 RMK A01 T00951021  RH  044%=      5-min Rain = 0
KFL1 180617Z 25010KT 10/M02 A2993 RMK A01 T00961021  RH  044%=      5-min Rain = 0
KFL1 180618Z 25008KT 10/M02 A2994 RMK A01 T00971019  RH  044%=      5-min Rain = 0
KFL1 180619Z 25009KT 10/M02 A2993 RMK A01 T00991019  RH  044%=      5-min Rain = 0
KFL1 180620Z 26008KT 10/M02 A2993 RMK A01 T00991018  RH  044%=      5-min Rain = 0
KFL1 180621Z 26007KT 10/M02 A2993 RMK A01 T00991020  RH  043%=      5-min Rain = 0
KFL1 180622Z 26009KT 10/M02 A2993 RMK A01 T01001019  RH  043%=      5-min Rain = 0
KFL1 180623Z 25009KT 10/M02 A2993 RMK A01 T01011018  RH  043%=      5-min Rain = 0
KFL1 180624Z 26007KT 10/M02 A2993 RMK A01 T01021016  RH  044%=      5-min Rain = 0
KFL1 180625Z 26008KT 10/M02 A2993 RMK A01 T01021016  RH  044%=      5-min Rain = 0
KFL1 180626Z 26007KT 10/M02 A2993 RMK A01 T00991019  RH  044%=      5-min Rain = 0
KFL1 180627Z 26008KT 10/M02 A2993 RMK A01 T00981019  RH  044%=      5-min Rain = 0
KFL1 180628Z 27007KT 10/M02 A2993 RMK A01 T00971019  RH  044%=      5-min Rain = 0
KFL1 180629Z 27006KT 10/M02 A2993 RMK A01 T00961019  RH  045%=      5-min Rain = 0
KFL1 180630Z 27007KT 10/M02 A2993 RMK A01 T00961019  RH  045%=      5-min Rain = 0
KFL1 180631Z 27007KT 10/M02 A2993 RMK A01 T00961018  RH  045%=      5-min Rain = 0
KFL1 180632Z 27006KT 09/M02 A2993 RMK A01 T00941020  RH  045%=      5-min Rain = 0
KFL1 180633Z 27006KT 09/M02 A2993 RMK A01 T00931019  RH  045%=      5-min Rain = 0
KFL1 180634Z 27007KT 09/M02 A2993 RMK A01 T00941018  RH  046%=      5-min Rain = 0
KFL1 180635Z 27007KT 09/M02 A2993 RMK A01 T00931018  RH  046%=      5-min Rain = 0
KFL1 180636Z 27007KT 09/M02 A2993 RMK A01 T00911019  RH  046%=      5-min Rain = 0
KFL1 180637Z 27005KT 09/M02 A2993 RMK A01 T00911017  RH  047%=      5-min Rain = 0
KFL1 180638Z 27006KT 09/M02 A2993 RMK A01 T00911016  RH  047%=      5-min Rain = 0
KFL1 180639Z 28006KT 09/M02 A2993 RMK A01 T00901017  RH  047%=      5-min Rain = 0
KFL1 180640Z 28006KT 09/M02 A2993 RMK A01 T00881019  RH  047%=      5-min Rain = 0
KFL1 180641Z 28006KT 09/M02 A2993 RMK A01 T00861019  RH  048%=      5-min Rain = 0
KFL1 180642Z 28006KT 09/M02 A2993 RMK A01 T00851019  RH  048%=      5-min Rain = 0
KFL1 180643Z 28006KT 08/M02 A2993 RMK A01 T00821020  RH  049%=      5-min Rain = 0
KFL1 180644Z 29005KT 08/M02 A2993 RMK A01 T00801020  RH  049%=      5-min Rain = 0
KFL1 180645Z 28006KT 08/M02 A2993 RMK A01 T00801019  RH  050%=      5-min Rain = 0
KFL1 180646Z 29006KT 08/M02 A2993 RMK A01 T00791018  RH  050%=      5-min Rain = 0
KFL1 180647Z 28006KT 08/M02 A2993 RMK A01 T00791018  RH  050%=      5-min Rain = 0
KFL1 180648Z 29006KT 08/M02 A2993 RMK A01 T00791018  RH  051%=      5-min Rain = 0
KFL1 180649Z 29006KT 08/M02 A2993 RMK A01 T00771019  RH  051%=      5-min Rain = 0
KFL1 180650Z 28007KT 08/M02 A2993 RMK A01 T00761020  RH  051%=      5-min Rain = 0
KFL1 180651Z 28006KT 08/M02 A2992 RMK A01 T00761018  RH  051%=      5-min Rain = 0
KFL1 180652Z 28006KT 08/M02 A2992 RMK A01 T00751018  RH  051%=      5-min Rain = 0
KFL1 180653Z 28006KT 08/M02 A2992 RMK A01 T00751018  RH  052%=      5-min Rain = 0
KFL1 180654Z 28006KT 08/M02 A2992 RMK A01 T00751018  RH  052%=      5-min Rain = 0
KFL1 180655Z 28005KT 08/M02 A2992 RMK A01 T00751017  RH  052%=      5-min Rain = 0
KFL1 180656Z 27006KT 08/M02 A2992 RMK A01 T00751018  RH  052%=      5-min Rain = 0
KFL1 180657Z 28006KT 07/M02 A2992 RMK A01 T00741018  RH  052%=      5-min Rain = 0
KFL1 180658Z 28005KT 07/M02 A2992 RMK A01 T00741018  RH  052%=      5-min Rain = 0
KFL1 180659Z 28005KT 07/M02 A2992 RMK A01 T00741019  RH  052%=      5-min Rain = 0
KFL1 180700Z 28005KT 07/M02 A2992 RMK A01 T00731019  RH  052%=      5-min Rain = 0
KFL1 180701Z 28004KT 07/M02 A2992 RMK A01 T00731019  RH  052%=      5-min Rain = 0
KFL1 180702Z 28005KT 07/M02 A2992 RMK A01 T00741018  RH  052%=      5-min Rain = 0
KFL1 180703Z 28004KT 07/M02 A2992 RMK A01 T00741018  RH  052%=      5-min Rain = 0
KFL1 180704Z 29005KT 07/M02 A2992 RMK A01 T00731018  RH  052%=      5-min Rain = 0
KFL1 180705Z 28006KT 07/M02 A2992 RMK A01 T00721019  RH  052%=      5-min Rain = 0
KFL1 180706Z 29005KT 07/M02 A2992 RMK A01 T00711019  RH  053%=      5-min Rain = 0
KFL1 180707Z 29005KT 07/M02 A2992 RMK A01 T00691020  RH  053%=      5-min Rain = 0
KFL1 180708Z 29004KT 07/M02 A2992 RMK A01 T00691019  RH  054%=      5-min Rain = 0
KFL1 180709Z 28005KT 07/M02 A2992 RMK A01 T00681019  RH  054%=      5-min Rain = 0
KFL1 180710Z 28005KT 07/M02 A2992 RMK A01 T00681019  RH  054%=      5-min Rain = 0
KFL1 180711Z 29005KT 07/M02 A2992 RMK A01 T00681019  RH  054%=      5-min Rain = 0
KFL1 180712Z 29005KT 07/M02 A2992 RMK A01 T00671019  RH  054%=      5-min Rain = 0
KFL1 180713Z 29006KT 07/M02 A2992 RMK A01 T00691017  RH  054%=      5-min Rain = 0
KFL1 180714Z 28005KT 07/M02 A2992 RMK A01 T00691018  RH  054%=      5-min Rain = 0
KFL1 180715Z 29005KT 07/M02 A2992 RMK A01 T00691018  RH  054%=      5-min Rain = 0
KFL1 180716Z 29005KT 07/M02 A2992 RMK A01 T00691015  RH  055%=      5-min Rain = 0
KFL1 180717Z 28006KT 07/M02 A2992 RMK A01 T00691016  RH  055%=      5-min Rain = 0
KFL1 180718Z 29007KT 07/M02 A2992 RMK A01 T00701016  RH  054%=      5-min Rain = 0
KFL1 180719Z 28006KT 07/M01 A2992 RMK A01 T00721013  RH  055%=      5-min Rain = 0
KFL1 180720Z 28007KT 07/M01 A2992 RMK A01 T00711012  RH  055%=      5-min Rain = 0
KFL1 180721Z 29006KT 07/M01 A2992 RMK A01 T00731011  RH  055%=      5-min Rain = 0
KFL1 180722Z 29006KT 08/M01 A2992 RMK A01 T00771009  RH  055%=      5-min Rain = 0
KFL1 180723Z 28005KT 08/M01 A2992 RMK A01 T00811008  RH  053%=      5-min Rain = 0
KFL1 180724Z 28006KT 08/M01 A2992 RMK A01 T00821009  RH  053%=      5-min Rain = 0
KFL1 180725Z 28006KT 08/M01 A2992 RMK A01 T00811010  RH  052%=      5-min Rain = 0
KFL1 180726Z 28005KT 08/M01 A2992 RMK A01 T00791012  RH  053%=      5-min Rain = 0
KFL1 180727Z 28006KT 08/M01 A2992 RMK A01 T00771012  RH  053%=      5-min Rain = 0
KFL1 180728Z 28006KT 07/M01 A2992 RMK A01 T00741012  RH  054%=      5-min Rain = 0
KFL1 180729Z 28005KT 08/M01 A2992 RMK A01 T00751011  RH  055%=      5-min Rain = 0
KFL1 180730Z 28005KT 07/M01 A2992 RMK A01 T00731012  RH  055%=      5-min Rain = 0
KFL1 180731Z 28005KT 07/M01 A2992 RMK A01 T00721012  RH  055%=      5-min Rain = 0
KFL1 180732Z 28005KT 07/M01 A2992 RMK A01 T00711011  RH  056%=      5-min Rain = 0
KFL1 180733Z 29005KT 07/M01 A2992 RMK A01 T00721009  RH  056%=      5-min Rain = 0
KFL1 180734Z 29005KT 07/M01 A2992 RMK A01 T00701012  RH  056%=      5-min Rain = 0
KFL1 180735Z 29005KT 07/M01 A2992 RMK A01 T00711010  RH  056%=      5-min Rain = 0
KFL1 180736Z 28006KT 07/M01 A2992 RMK A01 T00711010  RH  056%=      5-min Rain = 0
KFL1 180737Z 28006KT 07/M01 A2992 RMK A01 T00711009  RH  057%=      5-min Rain = 0
KFL1 180738Z 28006KT 07/M01 A2992 RMK A01 T00731007  RH  057%=      5-min Rain = 0
KFL1 180739Z 28005KT 07/M01 A2992 RMK A01 T00711009  RH  057%=      5-min Rain = 0
KFL1 180740Z 28005KT 07/M01 A2992 RMK A01 T00721008  RH  057%=      5-min Rain = 0
KFL1 180741Z 28005KT 07/M01 A2992 RMK A01 T00711009  RH  057%=      5-min Rain = 0
KFL1 180742Z 28005KT 07/M01 A2992 RMK A01 T00711008  RH  057%=      5-min Rain = 0
KFL1 180743Z 28006KT 07/M01 A2992 RMK A01 T00721007  RH  057%=      5-min Rain = 0
KFL1 180744Z 28005KT 07/M01 A2993 RMK A01 T00731007  RH  057%=      5-min Rain = 0
KFL1 180745Z 28006KT 07/M01 A2993 RMK A01 T00741006  RH  057%=      5-min Rain = 0
KFL1 180746Z 29005KT 07/M01 A2993 RMK A01 T00721008  RH  057%=      5-min Rain = 0
KFL1 180747Z 29007KT 07/M01 A2993 RMK A01 T00721007  RH  057%=      5-min Rain = 0
KFL1 180748Z 28005KT 07/M01 A2993 RMK A01 T00721007  RH  057%=      5-min Rain = 0
KFL1 180749Z 28004KT 07/M01 A2993 RMK A01 T00711007  RH  058%=      5-min Rain = 0
KFL1 180750Z 30005KT 07/M01 A2993 RMK A01 T00711007  RH  058%=      5-min Rain = 0
KFL1 180751Z 29006KT 07/M01 A2993 RMK A01 T00711007  RH  058%=      5-min Rain = 0
KFL1 180752Z 28005KT 07/M01 A2993 RMK A01 T00691008  RH  058%=      5-min Rain = 0
KFL1 180753Z 28006KT 07/M01 A2993 RMK A01 T00701006  RH  058%=      5-min Rain = 0
KFL1 180754Z 27005KT 07/M01 A2993 RMK A01 T00701005  RH  059%=      5-min Rain = 0
KFL1 180755Z 28006KT 07/M00 A2993 RMK A01 T00701004  RH  059%=      5-min Rain = 0
KFL1 180756Z 28006KT 07/M00 A2993 RMK A01 T00711003  RH  059%=      5-min Rain = 0
KFL1 180757Z 28005KT 07/M00 A2993 RMK A01 T00721003  RH  059%=      5-min Rain = 0
KFL1 180758Z 28007KT 07/M00 A2993 RMK A01 T00721003  RH  059%=      5-min Rain = 0
KFL1 180759Z 28006KT 07/M00 A2993 RMK A01 T00741001  RH  059%=      5-min Rain = 0
KFL1 180800Z 28006KT 08/M00 A2992 RMK A01 T00751001  RH  059%=      5-min Rain = 0
KFL1 180801Z 28005KT 08/00 A2992 RMK A01 T00770000  RH  058%=      5-min Rain = 0
KFL1 180802Z 28005KT 08/00 A2993 RMK A01 T007700-0  RH  058%=      5-min Rain = 0
KFL1 180803Z 27006KT 08/00 A2993 RMK A01 T00780001  RH  058%=      5-min Rain = 0
KFL1 180804Z 27005KT 08/00 A2993 RMK A01 T00780000  RH  058%=      5-min Rain = 0
KFL1 180805Z 26006KT 08/00 A2993 RMK A01 T00790001  RH  058%=      5-min Rain = 0
KFL1 180806Z 26006KT 08/00 A2993 RMK A01 T00790001  RH  057%=      5-min Rain = 0
KFL1 180807Z 26006KT 08/00 A2993 RMK A01 T00800002  RH  058%=      5-min Rain = 0
KFL1 180808Z 26006KT 08/00 A2993 RMK A01 T00790002  RH  058%=      5-min Rain = 0
KFL1 180809Z 26006KT 08/00 A2993 RMK A01 T00800003  RH  059%=      5-min Rain = 0
KFL1 180810Z 26007KT 08/00 A2993 RMK A01 T00800004  RH  059%=      5-min Rain = 0
KFL1 180811Z 26006KT 08/00 A2993 RMK A01 T00790003  RH  058%=      5-min Rain = 0
KFL1 180812Z 26008KT 08/00 A2993 RMK A01 T00800004  RH  059%=      5-min Rain = 0
KFL1 180813Z 27008KT 08/01 A2992 RMK A01 T00810006  RH  059%=      5-min Rain = 0
KFL1 180814Z 27007KT 08/01 A2992 RMK A01 T00810006  RH  059%=      5-min Rain = 0
KFL1 180815Z 26008KT 08/01 A2992 RMK A01 T00810005  RH  059%=      5-min Rain = 0
KFL1 180816Z 27007KT 08/01 A2993 RMK A01 T00810006  RH  059%=      5-min Rain = 0
KFL1 180817Z 27007KT 08/01 A2992 RMK A01 T00800005  RH  059%=      5-min Rain = 0
KFL1 180818Z 27007KT 08/01 A2992 RMK A01 T00800005  RH  059%=      5-min Rain = 0
KFL1 180819Z 27007KT 08/01 A2992 RMK A01 T00810006  RH  059%=      5-min Rain = 0
KFL1 180820Z 27006KT 08/01 A2992 RMK A01 T00800005  RH  059%=      5-min Rain = 0
KFL1 180821Z 26007KT 08/01 A2992 RMK A01 T00780005  RH  060%=      5-min Rain = 0
KFL1 180822Z 27008KT 08/01 A2992 RMK A01 T00780006  RH  060%=      5-min Rain = 0
KFL1 180823Z 27006KT 08/01 A2992 RMK A01 T00810008  RH  060%=      5-min Rain = 0
KFL1 180824Z 27007KT 08/01 A2992 RMK A01 T00810006  RH  059%=      5-min Rain = 0
KFL1 180825Z 27008KT 08/01 A2992 RMK A01 T00790005  RH  060%=      5-min Rain = 0
KFL1 180826Z 27008KT 08/01 A2992 RMK A01 T00800008  RH  061%=      5-min Rain = 0
KFL1 180827Z 26009G14KT 08/01 A2992 RMK A01 T00790008  RH  061%=      5-min Rain = 0
KFL1 180828Z 27008KT 08/01 A2992 RMK A01 T00800010  RH  061%=      5-min Rain = 0
KFL1 180829Z 27009KT 08/01 A2992 RMK A01 T00820012  RH  061%=      5-min Rain = 0
KFL1 180830Z 28008KT 08/01 A2992 RMK A01 T00820011  RH  061%=      5-min Rain = 0
KFL1 180831Z 28006KT 08/01 A2992 RMK A01 T00830010  RH  060%=      5-min Rain = 0
KFL1 180832Z 28006KT 08/01 A2992 RMK A01 T00830010  RH  060%=      5-min Rain = 0
KFL1 180833Z 27006KT 08/01 A2993 RMK A01 T00820009  RH  060%=      5-min Rain = 0
KFL1 180834Z 27006KT 08/01 A2992 RMK A01 T00810009  RH  060%=      5-min Rain = 0
KFL1 180835Z 28006KT 08/01 A2993 RMK A01 T00820010  RH  060%=      5-min Rain = 0
KFL1 180836Z 28006KT 08/01 A2993 RMK A01 T00810009  RH  060%=      5-min Rain = 0
KFL1 180837Z 27005KT 08/01 A2993 RMK A01 T00790007  RH  061%=      5-min Rain = 0
KFL1 180838Z 27005KT 08/01 A2993 RMK A01 T00760005  RH  061%=      5-min Rain = 0
KFL1 180839Z 28005KT 08/01 A2993 RMK A01 T00750005  RH  061%=      5-min Rain = 0
KFL1 180840Z 28006KT 07/01 A2992 RMK A01 T00720005  RH  062%=      5-min Rain = 0
KFL1 180841Z 28006KT 07/01 A2993 RMK A01 T00710006  RH  063%=      5-min Rain = 0
KFL1 180842Z 28006KT 07/01 A2993 RMK A01 T00700007  RH  064%=      5-min Rain = 0
KFL1 180843Z 27006KT 07/01 A2993 RMK A01 T00700007  RH  064%=      5-min Rain = 0
KFL1 180844Z 28006KT 07/01 A2993 RMK A01 T00680006  RH  065%=      5-min Rain = 0
KFL1 180845Z 29006KT 07/01 A2993 RMK A01 T00680007  RH  065%=      5-min Rain = 0
KFL1 180846Z 29006KT 07/01 A2993 RMK A01 T00690008  RH  065%=      5-min Rain = 0
KFL1 180847Z 29006KT 07/01 A2993 RMK A01 T00690007  RH  064%=      5-min Rain = 0
KFL1 180848Z 27008KT 07/01 A2993 RMK A01 T00710008  RH  064%=      5-min Rain = 0
KFL1 180849Z 29006KT 07/01 A2993 RMK A01 T00700007  RH  064%=      5-min Rain = 0
KFL1 180850Z 29006KT 07/01 A2993 RMK A01 T00700007  RH  064%=      5-min Rain = 0
KFL1 180851Z 30005KT 07/01 A2993 RMK A01 T00700008  RH  065%=      5-min Rain = 0
KFL1 180852Z 29005KT 07/01 A2993 RMK A01 T00680007  RH  065%=      5-min Rain = 0
KFL1 180853Z 30004KT 07/01 A2993 RMK A01 T00660005  RH  065%=      5-min Rain = 0
KFL1 180854Z 30005KT 07/01 A2993 RMK A01 T00680007  RH  065%=      5-min Rain = 0
KFL1 180855Z 30005KT 07/01 A2993 RMK A01 T00700009  RH  065%=      5-min Rain = 0
KFL1 180856Z 30004KT 07/01 A2993 RMK A01 T00700008  RH  064%=      5-min Rain = 0
KFL1 180857Z 30005KT 07/01 A2993 RMK A01 T00690006  RH  064%=      5-min Rain = 0
KFL1 180858Z 30005KT 07/01 A2993 RMK A01 T00690007  RH  064%=      5-min Rain = 0
KFL1 180859Z 29005KT 07/01 A2993 RMK A01 T00690006  RH  064%=      5-min Rain = 0
KFL1 180900Z 28005KT 07/01 A2992 RMK A01 T00690006  RH  064%=      5-min Rain = 0
KFL1 180901Z 29004KT 07/01 A2993 RMK A01 T00690007  RH  065%=      5-min Rain = 0
KFL1 180902Z 29004KT 07/01 A2992 RMK A01 T00690007  RH  065%=      5-min Rain = 0
KFL1 180903Z 29004KT 07/01 A2992 RMK A01 T00700008  RH  065%=      5-min Rain = 0
KFL1 180904Z 29004KT 07/01 A2992 RMK A01 T00690006  RH  064%=      5-min Rain = 0
KFL1 180905Z 29004KT 07/01 A2992 RMK A01 T00680005  RH  064%=      5-min Rain = 0
KFL1 180906Z 28004KT 07/01 A2992 RMK A01 T00680005  RH  064%=      5-min Rain = 0
KFL1 180907Z 29005KT 07/01 A2992 RMK A01 T00670005  RH  064%=      5-min Rain = 0
KFL1 180908Z 28004KT 07/01 A2992 RMK A01 T00670005  RH  065%=      5-min Rain = 0
KFL1 180909Z 28004KT 07/01 A2992 RMK A01 T00660005  RH  065%=      5-min Rain = 0
KFL1 180910Z 29004KT 07/00 A2992 RMK A01 T00650004  RH  065%=      5-min Rain = 0
KFL1 180911Z 29005KT 07/01 A2992 RMK A01 T00650006  RH  066%=      5-min Rain = 0
KFL1 180912Z 28005KT 07/01 A2992 RMK A01 T00660007  RH  066%=      5-min Rain = 0
KFL1 180913Z 28004KT 07/01 A2992 RMK A01 T00650006  RH  066%=      5-min Rain = 0
KFL1 180914Z 28005KT 07/01 A2992 RMK A01 T00660006  RH  065%=      5-min Rain = 0
KFL1 180915Z 28004KT 07/01 A2992 RMK A01 T00660005  RH  065%=      5-min Rain = 0
KFL1 180916Z 28003KT 07/01 A2992 RMK A01 T00650005  RH  065%=      5-min Rain = 0
KFL1 180917Z 28003KT 07/01 A2992 RMK A01 T00650006  RH  066%=      5-min Rain = 0
KFL1 180918Z 27003KT 06/00 A2992 RMK A01 T00630003  RH  065%=      5-min Rain = 0
KFL1 180919Z 27003KT 06/00 A2992 RMK A01 T00610003  RH  066%=      5-min Rain = 0
KFL1 180920Z 28003KT 06/00 A2992 RMK A01 T00600003  RH  067%=      5-min Rain = 0
KFL1 180921Z 28003KT 06/01 A2992 RMK A01 T00600005  RH  068%=      5-min Rain = 0
KFL1 180922Z 28003KT 06/00 A2992 RMK A01 T00590004  RH  068%=      5-min Rain = 0
KFL1 180923Z 28003KT 06/01 A2992 RMK A01 T00570005  RH  069%=      5-min Rain = 0
KFL1 180924Z 29003KT 06/00 A2992 RMK A01 T00550004  RH  070%=      5-min Rain = 0
KFL1 180925Z 28003KT 06/01 A2992 RMK A01 T00560006  RH  070%=      5-min Rain = 0
KFL1 180926Z 28003KT 06/01 A2992 RMK A01 T00550006  RH  070%=      5-min Rain = 0
KFL1 180927Z 29003KT 06/01 A2992 RMK A01 T00550007  RH  072%=      5-min Rain = 0
KFL1 180928Z 29003KT 05/01 A2992 RMK A01 T00530007  RH  072%=      5-min Rain = 0
KFL1 180929Z 28004KT 05/01 A2992 RMK A01 T00540009  RH  073%=      5-min Rain = 0
KFL1 180930Z 28003KT 05/01 A2992 RMK A01 T00520008  RH  073%=      5-min Rain = 0
KFL1 180931Z 26003KT 05/01 A2992 RMK A01 T00540010  RH  074%=      5-min Rain = 0
KFL1 180932Z 27003KT 06/01 A2992 RMK A01 T00550010  RH  073%=      5-min Rain = 0
KFL1 180933Z 27003KT 06/01 A2992 RMK A01 T00560011  RH  073%=      5-min Rain = 0
KFL1 180934Z 27003KT 06/01 A2992 RMK A01 T00570013  RH  073%=      5-min Rain = 0
KFL1 180935Z 28003KT 06/01 A2992 RMK A01 T00570013  RH  073%=      5-min Rain = 0
KFL1 180936Z 25003KT 06/02 A2992 RMK A01 T00580015  RH  074%=      5-min Rain = 0
KFL1 180937Z 27003KT 06/01 A2992 RMK A01 T00580014  RH  073%=      5-min Rain = 0
KFL1 180938Z 27003KT 06/02 A2991 RMK A01 T00600015  RH  073%=      5-min Rain = 0
KFL1 180939Z 28003KT 06/02 A2991 RMK A01 T00620016  RH  072%=      5-min Rain = 0
KFL1 180940Z 27004KT 07/02 A2991 RMK A01 T00650015  RH  070%=      5-min Rain = 0
KFL1 180941Z 27004KT 07/01 A2991 RMK A01 T00660013  RH  069%=      5-min Rain = 0
KFL1 180942Z 27004KT 07/02 A2991 RMK A01 T00690015  RH  069%=      5-min Rain = 0
KFL1 180943Z 27004KT 07/02 A2991 RMK A01 T00710015  RH  067%=      5-min Rain = 0
KFL1 180944Z 26004KT 07/01 A2991 RMK A01 T00730014  RH  066%=      5-min Rain = 0
KFL1 180945Z 26005KT 08/02 A2991 RMK A01 T00770015  RH  065%=      5-min Rain = 0
KFL1 180946Z 25006KT 08/02 A2991 RMK A01 T00790015  RH  064%=      5-min Rain = 0
KFL1 180947Z 25005KT 08/02 A2991 RMK A01 T00810016  RH  063%=      5-min Rain = 0
KFL1 180948Z 26005KT 08/02 A2992 RMK A01 T00820015  RH  063%=      5-min Rain = 0
KFL1 180949Z 26006KT 08/02 A2991 RMK A01 T00830016  RH  063%=      5-min Rain = 0
KFL1 180950Z 26005KT 08/02 A2992 RMK A01 T00830015  RH  062%=      5-min Rain = 0
KFL1 180951Z 25006KT 08/02 A2992 RMK A01 T00840016  RH  062%=      5-min Rain = 0
KFL1 180952Z 25006KT 09/02 A2992 RMK A01 T00850016  RH  062%=      5-min Rain = 0
KFL1 180953Z 25006KT 09/02 A2991 RMK A01 T00870017  RH  062%=      5-min Rain = 0
KFL1 180954Z 25006KT 09/02 A2992 RMK A01 T00870016  RH  061%=      5-min Rain = 0
KFL1 180955Z 25005KT 09/02 A2992 RMK A01 T00880016  RH  061%=      5-min Rain = 0
KFL1 180956Z 25006KT 09/02 A2991 RMK A01 T00870015  RH  060%=      5-min Rain = 0
KFL1 180957Z 25006KT 09/02 A2991 RMK A01 T00880016  RH  061%=      5-min Rain = 0
KFL1 180958Z 25005KT 09/02 A2991 RMK A01 T00880017  RH  061%=      5-min Rain = 0
KFL1 180959Z 25006KT 09/02 A2991 RMK A01 T00870015  RH  060%=      5-min Rain = 0
KFL1 181000Z 25005KT 09/02 A2991 RMK A01 T00880016  RH  060%=      5-min Rain = 0
KFL1 181001Z 26004KT 09/02 A2991 RMK A01 T00880015  RH  060%=      5-min Rain = 0
KFL1 181002Z 26004KT 09/02 A2991 RMK A01 T00890017  RH  061%=      5-min Rain = 0
KFL1 181003Z 26004KT 09/02 A2991 RMK A01 T00870015  RH  061%=      5-min Rain = 0
KFL1 181004Z 25004KT 09/01 A2991 RMK A01 T00860014  RH  060%=      5-min Rain = 0
KFL1 181005Z 25005KT 09/01 A2991 RMK A01 T00850013  RH  061%=      5-min Rain = 0
KFL1 181006Z 25005KT 08/01 A2991 RMK A01 T00840012  RH  061%=      5-min Rain = 0
KFL1 181007Z 25005KT 08/01 A2991 RMK A01 T00840013  RH  061%=      5-min Rain = 0
KFL1 181008Z 25005KT 08/01 A2991 RMK A01 T00830013  RH  061%=      5-min Rain = 0
KFL1 181009Z 26005KT 08/01 A2991 RMK A01 T00820012  RH  061%=      5-min Rain = 0
KFL1 181010Z 27005KT 08/01 A2991 RMK A01 T00810010  RH  061%=      5-min Rain = 0
KFL1 181011Z 26004KT 08/01 A2991 RMK A01 T00810012  RH  062%=      5-min Rain = 0
KFL1 181012Z 25005KT 08/01 A2991 RMK A01 T00790011  RH  062%=      5-min Rain = 0
KFL1 181013Z 25005KT 08/01 A2991 RMK A01 T00790012  RH  062%=      5-min Rain = 0
KFL1 181014Z 25004KT 08/01 A2991 RMK A01 T00800012  RH  062%=      5-min Rain = 0
KFL1 181015Z 24003KT 08/01 A2991 RMK A01 T00790011  RH  062%=      5-min Rain = 0
KFL1 181016Z 25003KT 08/01 A2991 RMK A01 T00780011  RH  062%=      5-min Rain = 0
KFL1 181017Z 26003KT 08/01 A2991 RMK A01 T00780011  RH  063%=      5-min Rain = 0
KFL1 181018Z 25003KT 08/01 A2991 RMK A01 T00770011  RH  063%=      5-min Rain = 0
KFL1 181019Z 23003KT 08/01 A2991 RMK A01 T00750010  RH  063%=      5-min Rain = 0
KFL1 181020Z 23003KT 07/01 A2991 RMK A01 T00740011  RH  064%=      5-min Rain = 0
KFL1 181021Z 22003KT 07/01 A2991 RMK A01 T00730010  RH  064%=      5-min Rain = 0
KFL1 181022Z 23003KT 07/01 A2991 RMK A01 T00740012  RH  065%=      5-min Rain = 0
KFL1 181023Z 22004KT 07/01 A2991 RMK A01 T00730011  RH  065%=      5-min Rain = 0
KFL1 181024Z 22004KT 07/01 A2991 RMK A01 T00730011  RH  065%=      5-min Rain = 0
KFL1 181025Z 22004KT 07/01 A2991 RMK A01 T00710010  RH  065%=      5-min Rain = 0
KFL1 181026Z 21004KT 07/01 A2991 RMK A01 T00730012  RH  065%=      5-min Rain = 0
KFL1 181027Z 21003KT 07/01 A2991 RMK A01 T00730012  RH  065%=      5-min Rain = 0
KFL1 181028Z 22003KT 07/01 A2991 RMK A01 T00720011  RH  065%=      5-min Rain = 0
KFL1 181029Z 22003KT 07/01 A2991 RMK A01 T00730012  RH  065%=      5-min Rain = 0
KFL1 181030Z 22003KT 07/01 A2991 RMK A01 T00720011  RH  065%=      5-min Rain = 0
KFL1 181031Z 22003KT 07/01 A2991 RMK A01 T00720011  RH  065%=      5-min Rain = 0
KFL1 181032Z 21003KT 07/01 A2991 RMK A01 T00710010  RH  065%=      5-min Rain = 0
KFL1 181033Z 21004KT 07/01 A2991 RMK A01 T00710011  RH  066%=      5-min Rain = 0
KFL1 181034Z 21004KT 07/01 A2991 RMK A01 T00700010  RH  066%=      5-min Rain = 0
KFL1 181035Z 22003KT 07/01 A2991 RMK A01 T00700011  RH  066%=      5-min Rain = 0
KFL1 181036Z 22003KT 07/01 A2991 RMK A01 T00700011  RH  066%=      5-min Rain = 0
KFL1 181037Z 23003KT 07/01 A2991 RMK A01 T00690010  RH  066%=      5-min Rain = 0
KFL1 181038Z 24003KT 07/01 A2991 RMK A01 T00690010  RH  066%=      5-min Rain = 0
KFL1 181039Z 24003KT 07/01 A2991 RMK A01 T00670009  RH  066%=      5-min Rain = 0
KFL1 181040Z 24003KT 07/01 A2991 RMK A01 T00680012  RH  067%=      5-min Rain = 0
KFL1 181041Z 25002KT 07/01 A2991 RMK A01 T00650008  RH  067%=      5-min Rain = 0
KFL1 181042Z 25002KT 07/01 A2991 RMK A01 T00650009  RH  067%=      5-min Rain = 0
KFL1 181043Z 26002KT 06/01 A2991 RMK A01 T00630008  RH  068%=      5-min Rain = 0
KFL1 181044Z 26002KT 06/01 A2991 RMK A01 T00610007  RH  068%=      5-min Rain = 0
KFL1 181045Z 26002KT 06/01 A2991 RMK A01 T00580005  RH  069%=      5-min Rain = 0
KFL1 181046Z 26002KT 06/01 A2991 RMK A01 T00590008  RH  070%=      5-min Rain = 0
KFL1 181047Z 26003KT 06/01 A2991 RMK A01 T00590008  RH  070%=      5-min Rain = 0
KFL1 181048Z 24004KT 06/01 A2991 RMK A01 T00590008  RH  070%=      5-min Rain = 0
KFL1 181049Z 24003KT 06/01 A2991 RMK A01 T00600009  RH  070%=      5-min Rain = 0
KFL1 181050Z 25003KT 06/01 A2991 RMK A01 T00590009  RH  070%=      5-min Rain = 0
KFL1 181051Z 26003KT 06/01 A2991 RMK A01 T00580008  RH  070%=      5-min Rain = 0
KFL1 181052Z 26003KT 06/01 A2991 RMK A01 T00580007  RH  069%=      5-min Rain = 0
KFL1 181053Z 25004KT 06/01 A2991 RMK A01 T00580005  RH  069%=      5-min Rain = 0
KFL1 181054Z 23004KT 06/01 A2991 RMK A01 T00570005  RH  070%=      5-min Rain = 0
KFL1 181055Z 23004KT 06/01 A2991 RMK A01 T00560008  RH  071%=      5-min Rain = 0
KFL1 181056Z 23004KT 06/01 A2991 RMK A01 T00570010  RH  072%=      5-min Rain = 0
KFL1 181057Z 23004KT 06/01 A2991 RMK A01 T00570009  RH  071%=      5-min Rain = 0
KFL1 181058Z 23004KT 06/01 A2991 RMK A01 T00570008  RH  071%=      5-min Rain = 0
KFL1 181059Z 23004KT 06/01 A2991 RMK A01 T00580009  RH  071%=      5-min Rain = 0
KFL1 181100Z 23004KT 06/01 A2991 RMK A01 T00590010  RH  071%=      5-min Rain = 0
KFL1 181101Z 23004KT 06/01 A2991 RMK A01 T00580009  RH  070%=      5-min Rain = 0
KFL1 181102Z 23004KT 06/01 A2991 RMK A01 T00590009  RH  070%=      5-min Rain = 0
KFL1 181103Z 22004KT 06/01 A2991 RMK A01 T00590008  RH  070%=      5-min Rain = 0
KFL1 181104Z 23004KT 06/01 A2991 RMK A01 T00580007  RH  070%=      5-min Rain = 0
KFL1 181105Z 23005KT 06/01 A2991 RMK A01 T00590009  RH  070%=      5-min Rain = 0
KFL1 181106Z 24005KT 06/01 A2991 RMK A01 T00570007  RH  070%=      5-min Rain = 0
KFL1 181107Z 23005KT 06/01 A2991 RMK A01 T00570006  RH  070%=      5-min Rain = 0
KFL1 181108Z 23004KT 06/01 A2991 RMK A01 T00570008  RH  071%=      5-min Rain = 0
KFL1 181109Z 24004KT 06/01 A2991 RMK A01 T00580010  RH  071%=      5-min Rain = 0
KFL1 181110Z 23005KT 06/01 A2991 RMK A01 T00570008  RH  071%=      5-min Rain = 0
KFL1 181111Z 24005KT 06/01 A2991 RMK A01 T00580010  RH  071%=      5-min Rain = 0
KFL1 181112Z 24005KT 06/01 A2991 RMK A01 T00590011  RH  071%=      5-min Rain = 0
KFL1 181113Z 24005KT 06/01 A2991 RMK A01 T00610012  RH  071%=      5-min Rain = 0
KFL1 181114Z 24006KT 06/01 A2991 RMK A01 T00620012  RH  070%=      5-min Rain = 0
KFL1 181115Z 24006KT 06/01 A2991 RMK A01 T00630013  RH  070%=      5-min Rain = 0
KFL1 181116Z 24006KT 07/01 A2991 RMK A01 T00650014  RH  069%=      5-min Rain = 0
KFL1 181117Z 24006KT 07/01 A2991 RMK A01 T00670013  RH  069%=      5-min Rain = 0
KFL1 181118Z 24005KT 07/01 A2991 RMK A01 T00690014  RH  068%=      5-min Rain = 0
KFL1 181119Z 25006KT 07/01 A2991 RMK A01 T00700014  RH  067%=      5-min Rain = 0
KFL1 181120Z 24006KT 07/01 A2991 RMK A01 T00690012  RH  067%=      5-min Rain = 0
KFL1 181121Z 24007KT 07/01 A2991 RMK A01 T00700012  RH  067%=      5-min Rain = 0
KFL1 181122Z 24006KT 07/01 A2991 RMK A01 T00700012  RH  067%=      5-min Rain = 0
KFL1 181123Z 24007KT 07/01 A2991 RMK A01 T00690011  RH  067%=      5-min Rain = 0
KFL1 181124Z 24006KT 07/01 A2991 RMK A01 T00690011  RH  067%=      5-min Rain = 0
KFL1 181125Z 24006KT 07/01 A2991 RMK A01 T00690011  RH  067%=      5-min Rain = 0
KFL1 181126Z 24006KT 07/01 A2991 RMK A01 T00680011  RH  067%=      5-min Rain = 0
KFL1 181127Z 24006KT 07/01 A2991 RMK A01 T00670009  RH  067%=      5-min Rain = 0
KFL1 181128Z 24006KT 07/01 A2991 RMK A01 T00680010  RH  067%=      5-min Rain = 0
KFL1 181129Z 24006KT 07/01 A2991 RMK A01 T00670010  RH  067%=      5-min Rain = 0
KFL1 181130Z 23007KT 07/01 A2991 RMK A01 T00670009  RH  067%=      5-min Rain = 0
KFL1 181131Z 23007KT 07/01 A2991 RMK A01 T00660009  RH  067%=      5-min Rain = 0
KFL1 181132Z 24007KT 07/01 A299 RMK A01 T00670010  RH  067%=      5-min Rain = 0
KFL1 181133Z 23006KT 07/01 A299 RMK A01 T00670010  RH  067%=      5-min Rain = 0
KFL1 181134Z 24006KT 07/01 A299 RMK A01 T00670010  RH  067%=      5-min Rain = 0
KFL1 181135Z 24005KT 07/01 A2991 RMK A01 T00680010  RH  067%=      5-min Rain = 0
KFL1 181136Z 24006KT 07/01 A2991 RMK A01 T00680010  RH  067%=      5-min Rain = 0
KFL1 181137Z 24007KT 07/01 A2991 RMK A01 T00670010  RH  067%=      5-min Rain = 0
KFL1 181138Z 24007KT 07/01 A2991 RMK A01 T00680012  RH  068%=      5-min Rain = 0
KFL1 181139Z 23007KT 07/01 A2991 RMK A01 T00670011  RH  067%=      5-min Rain = 0
KFL1 181140Z 24007KT 07/01 A2991 RMK A01 T00670011  RH  067%=      5-min Rain = 0
KFL1 181141Z 23006KT 07/01 A2991 RMK A01 T00670010  RH  067%=      5-min Rain = 0
KFL1 181142Z 23007KT 07/01 A2991 RMK A01 T00680011  RH  067%=      5-min Rain = 0
KFL1 181143Z 23006KT 07/01 A2991 RMK A01 T00680011  RH  067%=      5-min Rain = 0
KFL1 181144Z 24006KT 07/01 A2991 RMK A01 T00680011  RH  067%=      5-min Rain = 0
KFL1 181145Z 23006KT 07/01 A2991 RMK A01 T00670010  RH  067%=      5-min Rain = 0
KFL1 181146Z 23006KT 07/01 A2991 RMK A01 T00690012  RH  067%=      5-min Rain = 0
KFL1 181147Z 23005KT 07/01 A2991 RMK A01 T00670011  RH  067%=      5-min Rain = 0
KFL1 181148Z 23006KT 07/01 A2991 RMK A01 T00670010  RH  067%=      5-min Rain = 0
KFL1 181149Z 24006KT 07/01 A2991 RMK A01 T00680012  RH  067%=      5-min Rain = 0
KFL1 181150Z 24006KT 07/01 A299 RMK A01 T00680011  RH  067%=      5-min Rain = 0
KFL1 181151Z 24006KT 07/01 A299 RMK A01 T00690011  RH  067%=      5-min Rain = 0
KFL1 181152Z 25007KT 07/01 A299 RMK A01 T00690011  RH  067%=      5-min Rain = 0
KFL1 181153Z 25007KT 07/01 A299 RMK A01 T00690011  RH  067%=      5-min Rain = 0
KFL1 181154Z 25007KT 07/01 A299 RMK A01 T00700012  RH  066%=      5-min Rain = 0
KFL1 181155Z 26007KT 07/01 A299 RMK A01 T00710012  RH  066%=      5-min Rain = 0
KFL1 181156Z 25007KT 07/01 A299 RMK A01 T00740014  RH  065%=      5-min Rain = 0
KFL1 181157Z 25006KT 08/01 A299 RMK A01 T00760014  RH  065%=      5-min Rain = 0
KFL1 181158Z 25006KT 08/01 A299 RMK A01 T00750012  RH  064%=      5-min Rain = 0
KFL1 181159Z 26006KT 08/01 A299 RMK A01 T00760012  RH  064%=      5-min Rain = 0
KFL1 181200Z 26006KT 08/01 A299 RMK A01 T00770013  RH  064%=      5-min Rain = 0
KFL1 181201Z 26006KT 08/01 A299 RMK A01 T00780014  RH  064%=      5-min Rain = 0
KFL1 181202Z 25007KT 08/01 A299 RMK A01 T00770013  RH  064%=      5-min Rain = 0
KFL1 181203Z 26006KT 08/01 A299 RMK A01 T00770012  RH  064%=      5-min Rain = 0
KFL1 181204Z 26006KT 08/01 A299 RMK A01 T00780012  RH  063%=      5-min Rain = 0
KFL1 181205Z 26006KT 08/01 A299 RMK A01 T00790013  RH  063%=      5-min Rain = 0
KFL1 181206Z 26006KT 08/01 A299 RMK A01 T00790012  RH  063%=      5-min Rain = 0
KFL1 181207Z 26006KT 08/01 A299 RMK A01 T00800013  RH  063%=      5-min Rain = 0
KFL1 181208Z 26006KT 08/01 A299 RMK A01 T00790012  RH  063%=      5-min Rain = 0
KFL1 181209Z 26007KT 08/01 A299 RMK A01 T00790012  RH  063%=      5-min Rain = 0
KFL1 181210Z 26006KT 08/01 A299 RMK A01 T00810014  RH  063%=      5-min Rain = 0
KFL1 181211Z 25006KT 08/01 A299 RMK A01 T00800013  RH  062%=      5-min Rain = 0
KFL1 181212Z 25006KT 08/01 A299 RMK A01 T00790012  RH  062%=      5-min Rain = 0
KFL1 181213Z 25007KT 08/01 A299 RMK A01 T00800012  RH  062%=      5-min Rain = 0
KFL1 181214Z 25006KT 08/01 A299 RMK A01 T00790011  RH  062%=      5-min Rain = 0
KFL1 181215Z 25006KT 08/01 A299 RMK A01 T00790012  RH  062%=      5-min Rain = 0
KFL1 181216Z 24005KT 08/01 A299 RMK A01 T00800013  RH  062%=      5-min Rain = 0
KFL1 181217Z 25006KT 08/01 A299 RMK A01 T00790012  RH  062%=      5-min Rain = 0
KFL1 181218Z 25006KT 08/01 A299 RMK A01 T00810013  RH  062%=      5-min Rain = 0
KFL1 181219Z 24005KT 08/01 A299 RMK A01 T00790012  RH  062%=      5-min Rain = 0
KFL1 181220Z 25006KT 08/01 A299 RMK A01 T00790011  RH  062%=      5-min Rain = 0
KFL1 181221Z 23007KT 08/01 A299 RMK A01 T00810013  RH  062%=      5-min Rain = 0
KFL1 181222Z 25008KT 08/01 A299 RMK A01 T00800012  RH  062%=      5-min Rain = 0
KFL1 181223Z 26008KT 08/01 A299 RMK A01 T00800011  RH  062%=      5-min Rain = 0
KFL1 181224Z 26006KT 08/01 A299 RMK A01 T00820012  RH  061%=      5-min Rain = 0
KFL1 181225Z 26007KT 08/01 A299 RMK A01 T00830012  RH  061%=      5-min Rain = 0
KFL1 181226Z 26007KT 08/01 A299 RMK A01 T00840012  RH  060%=      5-min Rain = 0
KFL1 181227Z 26006KT 08/01 A299 RMK A01 T00830011  RH  060%=      5-min Rain = 0
KFL1 181228Z 26007KT 08/01 A299 RMK A01 T00840011  RH  060%=      5-min Rain = 0
KFL1 181229Z 25007KT 08/01 A299 RMK A01 T00840011  RH  060%=      5-min Rain = 0
KFL1 181230Z 25007KT 08/01 A299 RMK A01 T00840011  RH  060%=      5-min Rain = 0
KFL1 181231Z 25007KT 08/01 A299 RMK A01 T00840011  RH  060%=      5-min Rain = 0
KFL1 181232Z 25006KT 08/01 A299 RMK A01 T00840011  RH  060%=      5-min Rain = 0
KFL1 181233Z 25007KT 09/01 A299 RMK A01 T00850012  RH  060%=      5-min Rain = 0
KFL1 181234Z 25007KT 09/01 A299 RMK A01 T00850012  RH  060%=      5-min Rain = 0
KFL1 181235Z 25007KT 08/01 A299 RMK A01 T00840011  RH  060%=      5-min Rain = 0
KFL1 181236Z 25006KT 08/01 A299 RMK A01 T00840012  RH  060%=      5-min Rain = 0
KFL1 181237Z 25008KT 08/01 A299 RMK A01 T00820010  RH  060%=      5-min Rain = 0
KFL1 181238Z 25007KT 08/01 A2991 RMK A01 T00830010  RH  060%=      5-min Rain = 0
KFL1 181239Z 25008KT 08/01 A2991 RMK A01 T00830011  RH  060%=      5-min Rain = 0
KFL1 181240Z 25008KT 08/01 A2991 RMK A01 T00840011  RH  060%=      5-min Rain = 0
KFL1 181241Z 25009KT 08/01 A2991 RMK A01 T00840010  RH  060%=      5-min Rain = 0
KFL1 181242Z 25009KT 08/01 A2991 RMK A01 T00840010  RH  059%=      5-min Rain = 0
KFL1 181243Z 26009KT 09/01 A2991 RMK A01 T00850011  RH  060%=      5-min Rain = 0
KFL1 181244Z 26009KT 09/01 A2991 RMK A01 T00850013  RH  060%=      5-min Rain = 0
KFL1 181245Z 28009KT 08/01 A2991 RMK A01 T00830013  RH  061%=      5-min Rain = 0
KFL1 181246Z 28010KT 08/02 A2991 RMK A01 T00830016  RH  062%=      5-min Rain = 0
KFL1 181247Z 28009KT 08/02 A2991 RMK A01 T00820017  RH  063%=      5-min Rain = 0
KFL1 181248Z 26010G15KT 08/02 A2992 RMK A01 T00820018  RH  064%=      5-min Rain = 0
KFL1 181249Z 27009KT 08/02 A2992 RMK A01 T00810017  RH  064%=      5-min Rain = 0
KFL1 181250Z 26010KT 08/02 A2992 RMK A01 T00810018  RH  064%=      5-min Rain = 0
KFL1 181251Z 25011G16KT 08/02 A2992 RMK A01 T00810018  RH  065%=      5-min Rain = 0
KFL1 181252Z 26010G16KT 08/02 A2992 RMK A01 T00800020  RH  066%=      5-min Rain = 0
KFL1 181253Z 26015KT 08/02 A2992 RMK A01 T00780020  RH  067%=      5-min Rain = 0
KFL1 181254Z 28015KT 08/02 A2992 RMK A01 T00760022  RH  068%=      5-min Rain = 0
KFL1 181255Z 27017G22KT 07/03 A2992 RMK A01 T00740025  RH  071%=      5-min Rain = 0
KFL1 181256Z 27015G21KT 07/02 A2991 RMK A01 T00730024  RH  071%=      5-min Rain = 0
KFL1 181257Z 27014KT 07/03 A2992 RMK A01 T00740028  RH  073%=      5-min Rain = 0
KFL1 181258Z 27013KT 07/03 A2992 RMK A01 T00720029  RH  074%=      5-min Rain = 0
KFL1 181259Z 27015KT 07/03 A2992 RMK A01 T00720030  RH  075%=      5-min Rain = 0
KFL1 181300Z 26015KT 07/03 A2992 RMK A01 T00700033  RH  077%=      5-min Rain = 0
KFL1 181301Z 26014KT 07/03 A2992 RMK A01 T00690034  RH  078%=      5-min Rain = 0
KFL1 181302Z 26014G20KT 07/03 A2992 RMK A01 T00670033  RH  079%=      5-min Rain = 0
KFL1 181303Z 24013KT 07/04 A2992 RMK A01 T00680036  RH  080%=      5-min Rain = 0
KFL1 181304Z 24013KT 07/04 A2992 RMK A01 T00670036  RH  081%=      5-min Rain = 0
KFL1 181305Z 25012KT 07/04 A2992 RMK A01 T00650036  RH  082%=      5-min Rain = 0
KFL1 181306Z 25010G15KT 06/04 A2992 RMK A01 T00640035  RH  082%=      5-min Rain = 0
KFL1 181307Z 25009KT 07/04 A2992 RMK A01 T00660037  RH  082%=      5-min Rain = 0
KFL1 181308Z 26008KT 07/04 A2992 RMK A01 T00650037  RH  082%=      5-min Rain = 0.01
KFL1 181309Z 25010KT 07/04 A2992 RMK A01 T00650038  RH  083%=      5-min Rain = 0
KFL1 181310Z 26016KT 06/04 A2992 RMK A01 T00640038  RH  083%=      5-min Rain = 0
KFL1 181311Z 28012KT 06/04 A2992 RMK A01 T00640036  RH  082%=      5-min Rain = 0
KFL1 181312Z 29010KT 06/04 A2992 RMK A01 T00640037  RH  083%=      5-min Rain = 0
KFL1 181313Z 29014KT 06/04 A2992 RMK A01 T00620038  RH  084%=      5-min Rain = 0
KFL1 181314Z 29012KT 06/04 A2992 RMK A01 T00620039  RH  085%=      5-min Rain = 0
KFL1 181315Z 29014KT 06/04 A2992 RMK A01 T00630040  RH  085%=      5-min Rain = 0
KFL1 181316Z 28015KT 06/04 A2992 RMK A01 T00610038  RH  085%=      5-min Rain = 0
KFL1 181317Z 27016G21KT 06/04 A2992 RMK A01 T00620038  RH  085%=      5-min Rain = 0
KFL1 181318Z 27013KT 06/04 A2992 RMK A01 T00600035  RH  084%=      5-min Rain = 0
KFL1 181319Z 28010KT 06/03 A2991 RMK A01 T00600034  RH  083%=      5-min Rain = 0
KFL1 181320Z 29011KT 06/04 A2991 RMK A01 T00610036  RH  084%=      5-min Rain = 0
KFL1 181321Z 28011KT 06/03 A2991 RMK A01 T00590033  RH  083%=      5-min Rain = 0
KFL1 181322Z 29012KT 06/03 A2991 RMK A01 T00590032  RH  083%=      5-min Rain = 0
KFL1 181323Z 29008KT 06/03 A2991 RMK A01 T00600034  RH  084%=      5-min Rain = 0
KFL1 181324Z 30008KT 06/03 A2991 RMK A01 T00580032  RH  084%=      5-min Rain = 0
KFL1 181325Z 30006KT 06/04 A299 RMK A01 T00590036  RH  086%=      5-min Rain = 0
KFL1 181326Z 31005KT 06/04 A299 RMK A01 T00580038  RH  087%=      5-min Rain = 0
KFL1 181327Z 31004KT 06/04 A299 RMK A01 T00560037  RH  088%=      5-min Rain = 0
KFL1 181328Z 29004KT 06/04 A299 RMK A01 T00560038  RH  088%=      5-min Rain = 0
KFL1 181329Z 29005KT 06/04 A2991 RMK A01 T00550037  RH  088%=      5-min Rain = 0
KFL1 181330Z 28006KT 06/04 A2991 RMK A01 T00550037  RH  088%=      5-min Rain = 0
KFL1 181331Z 28006KT 06/04 A2991 RMK A01 T00560037  RH  088%=      5-min Rain = 0
KFL1 181332Z 28006KT 06/04 A2991 RMK A01 T00560039  RH  088%=      5-min Rain = 0
KFL1 181333Z 28007KT 06/04 A2991 RMK A01 T00560039  RH  089%=      5-min Rain = 0
KFL1 181334Z 27007KT 06/04 A2991 RMK A01 T00560038  RH  088%=      5-min Rain = 0
KFL1 181335Z 28007KT 06/04 A2991 RMK A01 T00550036  RH  088%=      5-min Rain = 0
KFL1 181336Z 28010KT 06/04 A2991 RMK A01 T00570037  RH  087%=      5-min Rain = 0
KFL1 181337Z 27011KT 06/04 A2991 RMK A01 T00580035  RH  085%=      5-min Rain = 0
KFL1 181338Z 25009KT 06/04 A2991 RMK A01 T00590037  RH  086%=      5-min Rain = 0
KFL1 181339Z 25012KT 06/04 A2991 RMK A01 T00580036  RH  086%=      5-min Rain = 0
KFL1 181340Z 26017G23KT 06/03 A2991 RMK A01 T00580032  RH  084%=      5-min Rain = 0
KFL1 181341Z 27023G29KT 06/03 A2992 RMK A01 T00600029  RH  081%=      5-min Rain = 0.01
KFL1 181342Z 28021G27KT 06/03 A2992 RMK A01 T00600028  RH  080%=      5-min Rain = 0
KFL1 181343Z 28022G29KT 06/03 A2992 RMK A01 T00600026  RH  079%=      5-min Rain = 0
KFL1 181344Z 28023G28KT 06/03 A2992 RMK A01 T00590026  RH  079%=      5-min Rain = 0
KFL1 181345Z 27019G25KT 06/02 A2992 RMK A01 T00570024  RH  079%=      5-min Rain = 0
KFL1 181346Z 27013G18KT 06/02 A2992 RMK A01 T00580024  RH  078%=      5-min Rain = 0
KFL1 181347Z 28010G15KT 06/03 A2992 RMK A01 T00570025  RH  080%=      5-min Rain = 0
KFL1 181348Z 26012KT 06/03 A2992 RMK A01 T00580027  RH  081%=      5-min Rain = 0
KFL1 181349Z 25015KT 06/03 A2992 RMK A01 T00550027  RH  082%=      5-min Rain = 0
KFL1 181350Z 25016G21KT 06/03 A2992 RMK A01 T00550027  RH  083%=      5-min Rain = 0
KFL1 181351Z 26013KT 06/03 A2992 RMK A01 T00560025  RH  080%=      5-min Rain = 0.01
KFL1 181352Z 24013KT 06/02 A2991 RMK A01 T00560023  RH  079%=      5-min Rain = 0
KFL1 181353Z 24017KT 06/02 A2991 RMK A01 T00570023  RH  079%=      5-min Rain = 0
KFL1 181354Z 25013G19KT 06/02 A2991 RMK A01 T00560021  RH  078%=      5-min Rain = 0
KFL1 181355Z 24013KT 06/02 A2991 RMK A01 T00590019  RH  075%=      5-min Rain = 0
KFL1 181356Z 24009KT 06/02 A2991 RMK A01 T00590019  RH  076%=      5-min Rain = 0
KFL1 181357Z 24008KT 06/03 A2991 RMK A01 T00600025  RH  078%=      5-min Rain = 0
KFL1 181358Z 24007KT 06/03 A2991 RMK A01 T00590027  RH  080%=      5-min Rain = 0
KFL1 181359Z 24009G15KT 06/03 A2991 RMK A01 T00570025  RH  080%=      5-min Rain = 0
KFL1 181400Z 25012KT 06/02 A2991 RMK A01 T00570024  RH  079%=      5-min Rain = 0
KFL1 181401Z 25012KT 06/02 A2991 RMK A01 T00570022  RH  078%=      5-min Rain = 0
KFL1 181402Z 24008KT 06/02 A2991 RMK A01 T00590024  RH  078%=      5-min Rain = 0
KFL1 181403Z 25007KT 06/02 A2991 RMK A01 T00570024  RH  079%=      5-min Rain = 0
KFL1 181404Z 25007KT 06/03 A2991 RMK A01 T00580025  RH  080%=      5-min Rain = 0
KFL1 181405Z 25006KT 06/03 A2991 RMK A01 T00580026  RH  079%=      5-min Rain = 0
KFL1 181406Z 26007KT 06/03 A2991 RMK A01 T00580025  RH  079%=      5-min Rain = 0
KFL1 181407Z 26007KT 06/02 A2991 RMK A01 T00560024  RH  080%=      5-min Rain = 0
KFL1 181408Z 25006KT 06/03 A2991 RMK A01 T00570025  RH  080%=      5-min Rain = 0
KFL1 181409Z 25006KT 06/03 A2991 RMK A01 T00570026  RH  080%=      5-min Rain = 0
KFL1 181410Z 25006KT 06/03 A2991 RMK A01 T00570027  RH  081%=      5-min Rain = 0
KFL1 181411Z 25005KT 06/03 A2991 RMK A01 T00570029  RH  082%=      5-min Rain = 0
KFL1 181412Z 26005KT 06/03 A2991 RMK A01 T00560029  RH  083%=      5-min Rain = 0
KFL1 181413Z 26004KT 06/03 A2991 RMK A01 T00570030  RH  083%=      5-min Rain = 0
KFL1 181414Z 27004KT 06/03 A2991 RMK A01 T00550029  RH  083%=      5-min Rain = 0
KFL1 181415Z 27004KT 06/03 A2991 RMK A01 T00550029  RH  083%=      5-min Rain = 0
KFL1 181416Z 27003KT 06/03 A2991 RMK A01 T00560031  RH  084%=      5-min Rain = 0
KFL1 181417Z 28003KT 06/03 A2991 RMK A01 T00550030  RH  084%=      5-min Rain = 0
KFL1 181418Z 29003KT 06/03 A2991 RMK A01 T00550032  RH  085%=      5-min Rain = 0
KFL1 181419Z 28004KT 06/03 A2991 RMK A01 T00550033  RH  086%=      5-min Rain = 0
KFL1 181420Z 29004KT 05/03 A2991 RMK A01 T00540034  RH  086%=      5-min Rain = 0
KFL1 181421Z 29004KT 06/04 A2991 RMK A01 T00550035  RH  087%=      5-min Rain = 0
KFL1 181422Z 29004KT 06/04 A2991 RMK A01 T00550035  RH  087%=      5-min Rain = 0
KFL1 181423Z 30005KT 06/04 A2991 RMK A01 T00550035  RH  087%=      5-min Rain = 0
KFL1 181424Z 30004KT 06/04 A2992 RMK A01 T00560036  RH  087%=      5-min Rain = 0
KFL1 181425Z 30004KT 06/04 A2992 RMK A01 T00580037  RH  087%=      5-min Rain = 0
KFL1 181426Z 30004KT 06/04 A2992 RMK A01 T00590039  RH  087%=      5-min Rain = 0
KFL1 181427Z 30004KT 06/04 A2992 RMK A01 T00590040  RH  087%=      5-min Rain = 0
KFL1 181428Z 30004KT 06/04 A2992 RMK A01 T00610041  RH  087%=      5-min Rain = 0
KFL1 181429Z 30004KT 06/04 A2991 RMK A01 T00620042  RH  087%=      5-min Rain = 0
KFL1 181430Z 30004KT 06/04 A2991 RMK A01 T00640042  RH  086%=      5-min Rain = 0
KFL1 181431Z 30003KT 07/04 A2991 RMK A01 T00660041  RH  084%=      5-min Rain = 0
KFL1 181432Z 29004KT 07/04 A2991 RMK A01 T00660040  RH  083%=      5-min Rain = 0
KFL1 181433Z 29004KT 07/04 A2991 RMK A01 T00660039  RH  083%=      5-min Rain = 0
KFL1 181434Z 28004KT 07/04 A2992 RMK A01 T00660039  RH  083%=      5-min Rain = 0
KFL1 181435Z 29004KT 06/04 A2992 RMK A01 T00640035  RH  082%=      5-min Rain = 0
KFL1 181436Z 28003KT 07/04 A2992 RMK A01 T00660037  RH  082%=      5-min Rain = 0
KFL1 181437Z 28004KT 06/04 A2992 RMK A01 T00640035  RH  081%=      5-min Rain = 0
KFL1 181438Z 28004KT 06/04 A2992 RMK A01 T00640035  RH  082%=      5-min Rain = 0
KFL1 181439Z 29003KT 07/04 A2992 RMK A01 T00650037  RH  083%=      5-min Rain = 0
KFL1 181440Z 28003KT 06/04 A2992 RMK A01 T00640037  RH  083%=      5-min Rain = 0
KFL1 181441Z 28003KT 06/04 A2992 RMK A01 T00630037  RH  083%=      5-min Rain = 0
KFL1 181442Z 28003KT 06/04 A2992 RMK A01 T00640038  RH  083%=      5-min Rain = 0
KFL1 181443Z 28003KT 06/04 A2992 RMK A01 T00640037  RH  083%=      5-min Rain = 0
KFL1 181444Z 29003KT 07/04 A2992 RMK A01 T00650039  RH  083%=      5-min Rain = 0
KFL1 181445Z 28002KT 07/04 A2992 RMK A01 T00650039  RH  083%=      5-min Rain = 0
KFL1 181446Z 28002KT 07/04 A2992 RMK A01 T00670039  RH  083%=      5-min Rain = 0
KFL1 181447Z 29003KT 07/04 A2992 RMK A01 T00690040  RH  082%=      5-min Rain = 0
KFL1 181448Z 30003KT 07/05 A2992 RMK A01 T00710045  RH  084%=      5-min Rain = 0
KFL1 181449Z 30003KT 07/05 A2992 RMK A01 T00720048  RH  085%=      5-min Rain = 0
KFL1 181450Z 29002KT 07/05 A2992 RMK A01 T00740045  RH  082%=      5-min Rain = 0
KFL1 181451Z 28003KT 08/05 A2992 RMK A01 T00750047  RH  082%=      5-min Rain = 0
KFL1 181452Z 28002KT 08/05 A2992 RMK A01 T00760049  RH  083%=      5-min Rain = 0
KFL1 181453Z 28002KT 08/05 A2992 RMK A01 T00770045  RH  081%=      5-min Rain = 0
KFL1 181454Z 28001KT 08/04 A2993 RMK A01 T00770038  RH  076%=      5-min Rain = 0
KFL1 181455Z 27003KT 08/04 A2993 RMK A01 T00780039  RH  076%=      5-min Rain = 0
KFL1 181456Z 26003KT 08/04 A2993 RMK A01 T00770042  RH  078%=      5-min Rain = 0
KFL1 181457Z 26003KT 08/04 A2993 RMK A01 T00780042  RH  078%=      5-min Rain = 0
KFL1 181458Z 27004KT 08/04 A2993 RMK A01 T00770036  RH  075%=      5-min Rain = 0
KFL1 181459Z 27006KT 08/03 A2993 RMK A01 T00760034  RH  075%=      5-min Rain = 0
KFL1 181500Z 26004KT 08/04 A2993 RMK A01 T00760036  RH  076%=      5-min Rain = 0
KFL1 181501Z 26005KT 08/03 A2993 RMK A01 T00750031  RH  074%=      5-min Rain = 0
KFL1 181502Z 26005KT 08/03 A2993 RMK A01 T00760032  RH  074%=      5-min Rain = 0
KFL1 181503Z 26006KT 08/03 A2993 RMK A01 T00750032  RH  074%=      5-min Rain = 0
KFL1 181504Z 25004KT 08/03 A2993 RMK A01 T00750034  RH  075%=      5-min Rain = 0
KFL1 181505Z 26005KT 08/03 A2993 RMK A01 T00750031  RH  074%=      5-min Rain = 0
KFL1 181506Z 25004KT 08/04 A2993 RMK A01 T00760035  RH  075%=      5-min Rain = 0
KFL1 181507Z 24005KT 08/04 A2993 RMK A01 T00770038  RH  077%=      5-min Rain = 0
KFL1 181508Z 23004KT 08/04 A2993 RMK A01 T00760039  RH  077%=      5-min Rain = 0
KFL1 181509Z 22004KT 08/04 A2993 RMK A01 T00760040  RH  078%=      5-min Rain = 0
KFL1 181510Z 22003KT 08/04 A2993 RMK A01 T00770042  RH  079%=      5-min Rain = 0
KFL1 181511Z 23003KT 08/05 A2993 RMK A01 T00790045  RH  079%=      5-min Rain = 0
KFL1 181512Z 23005KT 08/04 A2993 RMK A01 T00820044  RH  077%=      5-min Rain = 0
KFL1 181513Z 24004KT 09/04 A2993 RMK A01 T00850044  RH  076%=      5-min Rain = 0
KFL1 181514Z 24004KT 09/05 A2993 RMK A01 T00880046  RH  075%=      5-min Rain = 0
KFL1 181515Z 23006KT 09/05 A2993 RMK A01 T00890045  RH  074%=      5-min Rain = 0
KFL1 181516Z 25008KT 09/04 A2993 RMK A01 T00900036  RH  069%=      5-min Rain = 0
KFL1 181517Z 25009KT 09/04 A2993 RMK A01 T00910037  RH  069%=      5-min Rain = 0
KFL1 181518Z 25007KT 09/04 A2993 RMK A01 T00920036  RH  068%=      5-min Rain = 0
KFL1 181519Z 26007KT 09/03 A2993 RMK A01 T00940033  RH  066%=      5-min Rain = 0
KFL1 181520Z 25007KT 09/04 A2993 RMK A01 T00930037  RH  068%=      5-min Rain = 0
KFL1 181521Z 25009KT 10/04 A2993 RMK A01 T00950036  RH  067%=      5-min Rain = 0
KFL1 181522Z 25010KT 10/03 A2993 RMK A01 T00950033  RH  065%=      5-min Rain = 0
KFL1 181523Z 25010KT 09/04 A2993 RMK A01 T00930035  RH  067%=      5-min Rain = 0
KFL1 181524Z 25009KT 09/04 A2993 RMK A01 T00940039  RH  068%=      5-min Rain = 0
KFL1 181525Z 25010KT 10/04 A2993 RMK A01 T00960038  RH  067%=      5-min Rain = 0
KFL1 181526Z 25009KT 10/03 A2993 RMK A01 T00950034  RH  065%=      5-min Rain = 0
KFL1 181527Z 25009KT 10/04 A2993 RMK A01 T00960037  RH  067%=      5-min Rain = 0
KFL1 181528Z 26011KT 10/04 A2993 RMK A01 T00960038  RH  067%=      5-min Rain = 0
KFL1 181529Z 24013KT 10/04 A2993 RMK A01 T00980036  RH  065%=      5-min Rain = 0
KFL1 181530Z 26009KT 10/03 A2993 RMK A01 T00970031  RH  063%=      5-min Rain = 0
KFL1 181531Z 25008KT 09/03 A2993 RMK A01 T00940028  RH  063%=      5-min Rain = 0
KFL1 181532Z 26008G14KT 09/03 A2993 RMK A01 T00920026  RH  063%=      5-min Rain = 0
KFL1 181533Z 26008KT 09/03 A2993 RMK A01 T00920027  RH  064%=      5-min Rain = 0
KFL1 181534Z 25007KT 09/03 A2993 RMK A01 T00930027  RH  063%=      5-min Rain = 0
KFL1 181535Z 25008KT 09/03 A2993 RMK A01 T00910025  RH  063%=      5-min Rain = 0
KFL1 181536Z 25010KT 09/03 A2993 RMK A01 T00900025  RH  064%=      5-min Rain = 0
KFL1 181537Z 24010KT 09/02 A2993 RMK A01 T00900024  RH  063%=      5-min Rain = 0
KFL1 181538Z 24007KT 09/03 A2993 RMK A01 T00930031  RH  065%=      5-min Rain = 0
KFL1 181539Z 25011KT 10/04 A2993 RMK A01 T00960036  RH  066%=      5-min Rain = 0
KFL1 181540Z 25012KT 10/03 A2993 RMK A01 T00990034  RH  064%=      5-min Rain = 0
KFL1 181541Z 25009KT 10/03 A2993 RMK A01 T01020034  RH  063%=      5-min Rain = 0
KFL1 181542Z 22005KT 11/04 A2993 RMK A01 T01050042  RH  065%=      5-min Rain = 0
KFL1 181543Z 23007KT 11/04 A2993 RMK A01 T01050041  RH  065%=      5-min Rain = 0
KFL1 181544Z 22008KT 11/04 A2993 RMK A01 T01050038  RH  063%=      5-min Rain = 0
KFL1 181545Z 24008KT 10/04 A2993 RMK A01 T01030039  RH  064%=      5-min Rain = 0
KFL1 181546Z 26011G16KT 10/04 A2993 RMK A01 T01030037  RH  063%=      5-min Rain = 0
KFL1 181547Z 23010G16KT 10/03 A2993 RMK A01 T01010032  RH  062%=      5-min Rain = 0
KFL1 181548Z 23009KT 10/04 A2994 RMK A01 T00990038  RH  066%=      5-min Rain = 0
KFL1 181549Z 24011KT 10/04 A2994 RMK A01 T00990038  RH  066%=      5-min Rain = 0
KFL1 181550Z 24010KT 10/03 A2994 RMK A01 T00970033  RH  064%=      5-min Rain = 0
KFL1 181551Z 24010KT 10/03 A2994 RMK A01 T00970031  RH  063%=      5-min Rain = 0
KFL1 181552Z 24010KT 10/02 A2994 RMK A01 T00970023  RH  060%=      5-min Rain = 0
KFL1 181553Z 25008KT 10/02 A2994 RMK A01 T00960023  RH  060%=      5-min Rain = 0
KFL1 181554Z 24007KT 10/03 A2994 RMK A01 T00950029  RH  063%=      5-min Rain = 0
KFL1 181555Z 25008KT 10/03 A2994 RMK A01 T00950031  RH  064%=      5-min Rain = 0
KFL1 181556Z 25007KT 09/03 A2994 RMK A01 T00940027  RH  063%=      5-min Rain = 0
KFL1 181557Z 24008KT 09/02 A2994 RMK A01 T00940022  RH  061%=      5-min Rain = 0
KFL1 181558Z 24010G15KT 09/02 A2994 RMK A01 T00940018  RH  059%=      5-min Rain = 0
KFL1 181559Z 24012G17KT 09/02 A2994 RMK A01 T00940017  RH  059%=      5-min Rain = 0
KFL1 181600Z 25009KT 09/02 A2994 RMK A01 T00920016  RH  059%=      5-min Rain = 0
KFL1 181601Z 24007KT 09/02 A2994 RMK A01 T00920017  RH  059%=      5-min Rain = 0
KFL1 181602Z 24011KT 09/02 A2994 RMK A01 T00920020  RH  061%=      5-min Rain = 0
KFL1 181603Z 24012KT 09/02 A2994 RMK A01 T00920017  RH  060%=      5-min Rain = 0
KFL1 181604Z 25010KT 09/01 A2994 RMK A01 T00920014  RH  058%=      5-min Rain = 0
KFL1 181605Z 26009KT 09/01 A2994 RMK A01 T00920012  RH  057%=      5-min Rain = 0
KFL1 181606Z 25010KT 09/01 A2994 RMK A01 T00910013  RH  058%=      5-min Rain = 0
KFL1 181607Z 26009KT 09/01 A2994 RMK A01 T00920013  RH  057%=      5-min Rain = 0
KFL1 181608Z 26009KT 09/01 A2994 RMK A01 T00920011  RH  057%=      5-min Rain = 0
KFL1 181609Z 27010KT 09/01 A2994 RMK A01 T00930010  RH  056%=      5-min Rain = 0
KFL1 181610Z 25009KT 09/02 A2994 RMK A01 T00940015  RH  057%=      5-min Rain = 0
KFL1 181611Z 25013KT 10/02 A2994 RMK A01 T00980017  RH  057%=      5-min Rain = 0
KFL1 181612Z 24009G14KT 10/02 A2994 RMK A01 T01020015  RH  055%=      5-min Rain = 0
KFL1 181613Z 25008KT 11/02 A2994 RMK A01 T01070019  RH  055%=      5-min Rain = 0
KFL1 181614Z 23013KT 11/02 A2994 RMK A01 T01110024  RH  055%=      5-min Rain = 0
KFL1 181615Z 25012G18KT 11/02 A2994 RMK A01 T01120019  RH  053%=      5-min Rain = 0
KFL1 181616Z 24009KT 11/02 A2994 RMK A01 T01100018  RH  053%=      5-min Rain = 0
KFL1 181617Z 25011KT 11/02 A2994 RMK A01 T01100021  RH  054%=      5-min Rain = 0
KFL1 181618Z 24011KT 11/02 A2994 RMK A01 T01080018  RH  054%=      5-min Rain = 0
KFL1 181619Z 25012KT 11/02 A2994 RMK A01 T01080019  RH  054%=      5-min Rain = 0
KFL1 181620Z 25013KT 11/02 A2994 RMK A01 T01090020  RH  054%=      5-min Rain = 0
KFL1 181621Z 24010KT 11/02 A2994 RMK A01 T01130024  RH  054%=      5-min Rain = 0
KFL1 181622Z 29010G15KT 12/03 A2994 RMK A01 T01160028  RH  055%=      5-min Rain = 0
KFL1 181623Z 29013KT 12/03 A2994 RMK A01 T01200025  RH  052%=      5-min Rain = 0
KFL1 181624Z 29011KT 12/02 A2994 RMK A01 T01170021  RH  052%=      5-min Rain = 0
KFL1 181625Z 29012KT 11/02 A2995 RMK A01 T01110016  RH  052%=      5-min Rain = 0
KFL1 181626Z 28012KT 11/01 A2995 RMK A01 T01050010  RH  052%=      5-min Rain = 0
KFL1 181627Z 27011KT 10/01 A2995 RMK A01 T01000007  RH  052%=      5-min Rain = 0
KFL1 181628Z 28011KT 10/01 A2995 RMK A01 T00980007  RH  053%=      5-min Rain = 0
KFL1 181629Z 28012KT 10/01 A2995 RMK A01 T00950007  RH  054%=      5-min Rain = 0
KFL1 181630Z 29011KT 10/01 A2995 RMK A01 T00960010  RH  055%=      5-min Rain = 0
KFL1 181631Z 29013KT 09/01 A2995 RMK A01 T00940010  RH  056%=      5-min Rain = 0
KFL1 181632Z 29013KT 09/01 A2995 RMK A01 T00930010  RH  056%=      5-min Rain = 0
KFL1 181633Z 30012KT 09/01 A2995 RMK A01 T00910010  RH  057%=      5-min Rain = 0
KFL1 181634Z 30011KT 09/01 A2995 RMK A01 T00900009  RH  057%=      5-min Rain = 0
KFL1 181635Z 30009KT 09/01 A2995 RMK A01 T00890010  RH  057%=      5-min Rain = 0
KFL1 181636Z 28010G15KT 09/01 A2995 RMK A01 T00880010  RH  058%=      5-min Rain = 0
KFL1 181637Z 29011KT 09/01 A2995 RMK A01 T00870006  RH  057%=      5-min Rain = 0
KFL1 181638Z 29009KT 09/01 A2995 RMK A01 T00880006  RH  057%=      5-min Rain = 0
KFL1 181639Z 27010KT 09/01 A2995 RMK A01 T00880006  RH  056%=      5-min Rain = 0
KFL1 181640Z 28008KT 09/01 A2995 RMK A01 T00870006  RH  057%=      5-min Rain = 0
KFL1 181641Z 28009KT 09/01 A2995 RMK A01 T00870006  RH  057%=      5-min Rain = 0
KFL1 181642Z 28009KT 09/01 A2995 RMK A01 T00870008  RH  057%=      5-min Rain = 0
KFL1 181643Z 27010KT 09/01 A2995 RMK A01 T00860007  RH  058%=      5-min Rain = 0
KFL1 181644Z 27007KT 09/01 A2995 RMK A01 T00890005  RH  056%=      5-min Rain = 0
KFL1 181645Z 25007KT 09/01 A2995 RMK A01 T00930009  RH  056%=      5-min Rain = 0
KFL1 181646Z 27008KT 10/01 A2995 RMK A01 T00970012  RH  055%=      5-min Rain = 0
KFL1 181647Z 27007KT 10/01 A2995 RMK A01 T01030013  RH  054%=      5-min Rain = 0
KFL1 181648Z 26008KT 11/02 A2994 RMK A01 T01080017  RH  053%=      5-min Rain = 0
KFL1 181649Z 28011KT 11/01 A2994 RMK A01 T01100011  RH  050%=      5-min Rain = 0
KFL1 181650Z 28011KT 11/01 A2994 RMK A01 T01100009  RH  050%=      5-min Rain = 0
KFL1 181651Z 28013KT 11/01 A2994 RMK A01 T01090010  RH  051%=      5-min Rain = 0
KFL1 181652Z 28011KT 11/01 A2994 RMK A01 T01090009  RH  050%=      5-min Rain = 0
KFL1 181653Z 26011G16KT 11/01 A2994 RMK A01 T01100009  RH  050%=      5-min Rain = 0
KFL1 181654Z 26011KT 11/00 A2994 RMK A01 T01120001  RH  046%=      5-min Rain = 0
KFL1 181655Z 26012KT 11/01 A2994 RMK A01 T01120005  RH  048%=      5-min Rain = 0
KFL1 181656Z 28013KT 12/01 A2994 RMK A01 T01150006  RH  047%=      5-min Rain = 0
KFL1 181657Z 28013KT 12/01 A2994 RMK A01 T01170010  RH  048%=      5-min Rain = 0
KFL1 181658Z 27013KT 12/01 A2994 RMK A01 T01200006  RH  046%=      5-min Rain = 0
KFL1 181659Z 28011KT 12/00 A2994 RMK A01 T01200004  RH  045%=      5-min Rain = 0
KFL1 181700Z 27009KT 12/01 A2994 RMK A01 T01190009  RH  047%=      5-min Rain = 0
KFL1 181701Z 26009KT 12/01 A2994 RMK A01 T01240012  RH  046%=      5-min Rain = 0
KFL1 181702Z 26010KT 13/01 A2995 RMK A01 T01260010  RH  045%=      5-min Rain = 0
KFL1 181703Z 25010KT 12/00 A2994 RMK A01 T012300-0  RH  043%=      5-min Rain = 0
KFL1 181704Z 26008KT 12/00 A2994 RMK A01 T01180002  RH  045%=      5-min Rain = 0
KFL1 181705Z 27009KT 12/00 A2995 RMK A01 T01170002  RH  045%=      5-min Rain = 0
KFL1 181706Z 26012KT 12/01 A2995 RMK A01 T01150005  RH  047%=      5-min Rain = 0
KFL1 181707Z 27008KT 11/00 A2995 RMK A01 T01140003  RH  046%=      5-min Rain = 0
KFL1 181708Z 27009KT 12/00 A2995 RMK A01 T01150003  RH  046%=      5-min Rain = 0
KFL1 181709Z 27009KT 12/00 A2995 RMK A01 T01150003  RH  046%=      5-min Rain = 0
KFL1 181710Z 27010KT 11/00 A2995 RMK A01 T01140002  RH  046%=      5-min Rain = 0
KFL1 181711Z 27011KT 12/01 A2994 RMK A01 T01170008  RH  047%=      5-min Rain = 0
KFL1 181712Z 26007KT 12/02 A2994 RMK A01 T01230015  RH  048%=      5-min Rain = 0
KFL1 181713Z 25012G17KT 13/01 A2994 RMK A01 T01250006  RH  044%=      5-min Rain = 0
KFL1 181714Z 25014KT 12/M00 A2994 RMK A01 T01201003  RH  043%=      5-min Rain = 0
KFL1 181715Z 27011KT 12/M01 A2994 RMK A01 T01161005  RH  043%=      5-min Rain = 0
KFL1 181716Z 26011KT 11/M00 A2994 RMK A01 T01131001  RH  045%=      5-min Rain = 0
KFL1 181717Z 26010KT 11/M00 A2994 RMK A01 T01131001  RH  045%=      5-min Rain = 0
KFL1 181718Z 27007KT 11/M01 A2994 RMK A01 T01121005  RH  044%=      5-min Rain = 0
KFL1 181719Z 27012KT 11/M00 A2994 RMK A01 T01111004  RH  045%=      5-min Rain = 0
KFL1 181720Z 28014KT 11/M00 A2994 RMK A01 T01111003  RH  045%=      5-min Rain = 0
KFL1 181721Z 29012KT 11/M01 A2994 RMK A01 T01101005  RH  045%=      5-min Rain = 0
KFL1 181722Z 29013KT 11/M01 A2994 RMK A01 T01081007  RH  045%=      5-min Rain = 0
KFL1 181723Z 28012KT 11/M01 A2994 RMK A01 T01071006  RH  046%=      5-min Rain = 0
KFL1 181724Z 28013G18KT 11/M01 A2994 RMK A01 T01051009  RH  045%=      5-min Rain = 0
KFL1 181725Z 28013KT 10/M01 A2995 RMK A01 T01041009  RH  046%=      5-min Rain = 0
KFL1 181726Z 27012KT 10/M01 A2995 RMK A01 T01031008  RH  046%=      5-min Rain = 0
KFL1 181727Z 28014KT 10/M01 A2994 RMK A01 T01021009  RH  046%=      5-min Rain = 0
KFL1 181728Z 28013KT 10/M01 A2994 RMK A01 T01011008  RH  047%=      5-min Rain = 0
KFL1 181729Z 28014KT 10/M01 A2994 RMK A01 T01001009  RH  046%=      5-min Rain = 0
KFL1 181730Z 29015KT 10/M01 A2994 RMK A01 T01001009  RH  047%=      5-min Rain = 0
KFL1 181731Z 29013KT 10/M01 A2994 RMK A01 T00991007  RH  048%=      5-min Rain = 0
KFL1 181732Z 30015KT 10/M01 A2994 RMK A01 T00991007  RH  048%=      5-min Rain = 0
KFL1 181733Z 30016KT 10/M01 A2994 RMK A01 T00991005  RH  048%=      5-min Rain = 0
KFL1 181734Z 29014KT 10/M01 A2995 RMK A01 T00971006  RH  048%=      5-min Rain = 0
KFL1 181735Z 28012KT 10/M01 A2995 RMK A01 T00981007  RH  048%=      5-min Rain = 0
KFL1 181736Z 27014KT 10/M01 A2995 RMK A01 T00961011  RH  047%=      5-min Rain = 0
KFL1 181737Z 27014KT 10/M01 A2995 RMK A01 T00971009  RH  048%=      5-min Rain = 0
KFL1 181738Z 27012KT 10/M01 A2995 RMK A01 T00991008  RH  047%=      5-min Rain = 0
KFL1 181739Z 28013KT 10/M00 A2995 RMK A01 T01041004  RH  047%=      5-min Rain = 0
KFL1 181740Z 29014KT 11/00 A2995 RMK A01 T01100001  RH  047%=      5-min Rain = 0
KFL1 181741Z 29013KT 12/01 A2995 RMK A01 T01190005  RH  046%=      5-min Rain = 0
KFL1 181742Z 27016KT 12/00 A2995 RMK A01 T01240002  RH  043%=      5-min Rain = 0
KFL1 181743Z 26014G20KT 13/M00 A2995 RMK A01 T01251003  RH  041%=      5-min Rain = 0
KFL1 181744Z 25014KT 13/M01 A2995 RMK A01 T01271006  RH  040%=      5-min Rain = 0
KFL1 181745Z 27014KT 13/M01 A2995 RMK A01 T01271006  RH  040%=      5-min Rain = 0
KFL1 181746Z 27013KT 13/M00 A2995 RMK A01 T01281004  RH  040%=      5-min Rain = 0
KFL1 181747Z 26013KT 13/M00 A2994 RMK A01 T01301001  RH  040%=      5-min Rain = 0
KFL1 181748Z 26012G17KT 13/M00 A2994 RMK A01 T01331002  RH  039%=      5-min Rain = 0
KFL1 181749Z 26014KT 13/M01 A2994 RMK A01 T01331006  RH  038%=      5-min Rain = 0
KFL1 181750Z 26017KT 13/M01 A2994 RMK A01 T01281008  RH  039%=      5-min Rain = 0
KFL1 181751Z 26014KT 12/M01 A2994 RMK A01 T01211014  RH  039%=      5-min Rain = 0
KFL1 181752Z 26013KT 12/M01 A2994 RMK A01 T01151013  RH  041%=      5-min Rain = 0
KFL1 181753Z 26011KT 11/M02 A2994 RMK A01 T01101015  RH  042%=      5-min Rain = 0
KFL1 181754Z 28015KT 11/M02 A2994 RMK A01 T01081016  RH  042%=      5-min Rain = 0
KFL1 181755Z 28013KT 11/M02 A2994 RMK A01 T01081016  RH  042%=      5-min Rain = 0
KFL1 181756Z 27014KT 11/M01 A2994 RMK A01 T01111012  RH  043%=      5-min Rain = 0
KFL1 181757Z 26014KT 12/M01 A2994 RMK A01 T01171008  RH  042%=      5-min Rain = 0
KFL1 181758Z 26013KT 12/M01 A2994 RMK A01 T01211009  RH  041%=      5-min Rain = 0
KFL1 181759Z 25013KT 12/M01 A2994 RMK A01 T01201012  RH  040%=      5-min Rain = 0
KFL1 181800Z 27015KT 12/M01 A2994 RMK A01 T01191013  RH  040%=      5-min Rain = 0
KFL1 181801Z 26012G18KT 12/M01 A2994 RMK A01 T01211011  RH  040%=      5-min Rain = 0
KFL1 181802Z 27012KT 12/M01 A2994 RMK A01 T01221012  RH  039%=      5-min Rain = 0
KFL1 181803Z 26011KT 12/M01 A2994 RMK A01 T01221008  RH  040%=      5-min Rain = 0
KFL1 181804Z 25012KT 12/M01 A2994 RMK A01 T01231007  RH  041%=      5-min Rain = 0
KFL1 181805Z 26010KT 12/M01 A2994 RMK A01 T01211010  RH  040%=      5-min Rain = 0
KFL1 181806Z 24013KT 12/M01 A2994 RMK A01 T01211008  RH  041%=      5-min Rain = 0
KFL1 181807Z 25011KT 12/M01 A2994 RMK A01 T01231009  RH  040%=      5-min Rain = 0
KFL1 181808Z 26011KT 12/M01 A2994 RMK A01 T01231012  RH  039%=      5-min Rain = 0
KFL1 181809Z 26008KT 12/M01 A2994 RMK A01 T01181014  RH  040%=      5-min Rain = 0
KFL1 181810Z 25009KT 12/M01 A2994 RMK A01 T01181013  RH  040%=      5-min Rain = 0
KFL1 181811Z 25011KT 12/M01 A2994 RMK A01 T01171013  RH  040%=      5-min Rain = 0
KFL1 181812Z 25013KT 12/M01 A2994 RMK A01 T01191008  RH  041%=      5-min Rain = 0
KFL1 181813Z 27014KT 12/M01 A2994 RMK A01 T01191012  RH  040%=      5-min Rain = 0
KFL1 181814Z 27014KT 12/M01 A2994 RMK A01 T01151014  RH  041%=      5-min Rain = 0
KFL1 181815Z 26015KT 11/M01 A2994 RMK A01 T01111014  RH  042%=      5-min Rain = 0
KFL1 181816Z 26014KT 11/M02 A2994 RMK A01 T01091015  RH  042%=      5-min Rain = 0
KFL1 181817Z 26013KT 11/M02 A2994 RMK A01 T01071017  RH  042%=      5-min Rain = 0
KFL1 181818Z 27015KT 11/M02 A2994 RMK A01 T01061018  RH  042%=      5-min Rain = 0
KFL1 181819Z 27015G20KT 11/M02 A2994 RMK A01 T01051018  RH  042%=      5-min Rain = 0
KFL1 181820Z 27014KT 10/M02 A2994 RMK A01 T01031017  RH  043%=      5-min Rain = 0
KFL1 181821Z 28014G19KT 10/M02 A2994 RMK A01 T01021016  RH  044%=      5-min Rain = 0
KFL1 181822Z 28011KT 10/M02 A2994 RMK A01 T01001018  RH  044%=      5-min Rain = 0
KFL1 181823Z 29009KT 10/M02 A2994 RMK A01 T00991018  RH  044%=      5-min Rain = 0
KFL1 181824Z 29010KT 10/M01 A2994 RMK A01 T01031009  RH  046%=      5-min Rain = 0
KFL1 181825Z 26010KT 11/M01 A2994 RMK A01 T01101007  RH  044%=      5-min Rain = 0
KFL1 181826Z 27010KT 12/M01 A2993 RMK A01 T01151007  RH  043%=      5-min Rain = 0
KFL1 181827Z 26015G20KT 12/M00 A2993 RMK A01 T01211003  RH  042%=      5-min Rain = 0
KFL1 181828Z 25013G19KT 13/M01 A2993 RMK A01 T01251005  RH  041%=      5-min Rain = 0
KFL1 181829Z 27012KT 13/M01 A2993 RMK A01 T01251009  RH  040%=      5-min Rain = 0
KFL1 181830Z 27013KT 13/M01 A2993 RMK A01 T01251010  RH  039%=      5-min Rain = 0
KFL1 181831Z 26016KT 13/M01 A2993 RMK A01 T01261009  RH  039%=      5-min Rain = 0
KFL1 181832Z 26013KT 13/M01 A2993 RMK A01 T01281010  RH  038%=      5-min Rain = 0
KFL1 181833Z 27012KT 13/M01 A2993 RMK A01 T01271009  RH  039%=      5-min Rain = 0
KFL1 181834Z 29011KT 13/M01 A2993 RMK A01 T01311005  RH  039%=      5-min Rain = 0
KFL1 181835Z 29012KT 13/M00 A2993 RMK A01 T01321003  RH  040%=      5-min Rain = 0
KFL1 181836Z 27012KT 14/00 A2993 RMK A01 T01360001  RH  040%=      5-min Rain = 0
KFL1 181837Z 27011KT 14/M01 A2993 RMK A01 T01381007  RH  037%=      5-min Rain = 0
KFL1 181838Z 27014KT 14/M01 A2993 RMK A01 T01371005  RH  038%=      5-min Rain = 0
KFL1 181839Z 25011KT 14/M01 A2993 RMK A01 T01351010  RH  037%=      5-min Rain = 0
KFL1 181840Z 27010G15KT 13/M01 A2993 RMK A01 T01311012  RH  037%=      5-min Rain = 0
KFL1 181841Z 25008G13KT 13/M00 A2993 RMK A01 T01321004  RH  039%=      5-min Rain = 0
KFL1 181842Z 24012G18KT 14/M00 A2993 RMK A01 T01361003  RH  038%=      5-min Rain = 0
KFL1 181843Z 25013G18KT 14/M01 A2992 RMK A01 T01381007  RH  037%=      5-min Rain = 0
KFL1 181844Z 25014KT 14/M01 A2992 RMK A01 T01391007  RH  037%=      5-min Rain = 0
KFL1 181845Z 25014KT 14/M01 A2992 RMK A01 T01391010  RH  036%=      5-min Rain = 0
KFL1 181846Z 26012G18KT 14/M01 A2992 RMK A01 T01371013  RH  035%=      5-min Rain = 0
KFL1 181847Z 24009KT 14/M01 A2992 RMK A01 T01371008  RH  037%=      5-min Rain = 0
KFL1 181848Z 29010KT 14/M01 A2992 RMK A01 T01391008  RH  036%=      5-min Rain = 0
KFL1 181849Z 29015KT 14/00 A2992 RMK A01 T01420001  RH  038%=      5-min Rain = 0
KFL1 181850Z 28013KT 14/M01 A2992 RMK A01 T01431005  RH  036%=      5-min Rain = 0
KFL1 181851Z 27011KT 14/M01 A2992 RMK A01 T01431006  RH  036%=      5-min Rain = 0
KFL1 181852Z 29011KT 14/M01 A2992 RMK A01 T01431006  RH  036%=      5-min Rain = 0
KFL1 181853Z 29010KT 14/M01 A2992 RMK A01 T01431010  RH  035%=      5-min Rain = 0
KFL1 181854Z 27009G17KT 14/M01 A2992 RMK A01 T01441009  RH  035%=      5-min Rain = 0
KFL1 181855Z 29016G21KT 15/M00 A2992 RMK A01 T01461003  RH  036%=      5-min Rain = 0
KFL1 181856Z 28015G23KT 15/M00 A2992 RMK A01 T01511004  RH  035%=      5-min Rain = 0
KFL1 181857Z 30018KT 15/M00 A2992 RMK A01 T01501004  RH  035%=      5-min Rain = 0
KFL1 181858Z 29017KT 15/M01 A2992 RMK A01 T01521005  RH  034%=      5-min Rain = 0
KFL1 181859Z 30015G20KT 15/M01 A2992 RMK A01 T01511008  RH  034%=      5-min Rain = 0
KFL1 181900Z 29015G20KT 15/M00 A2992 RMK A01 T01531004  RH  034%=      5-min Rain = 0
KFL1 181901Z 28013G20KT 15/M01 A2992 RMK A01 T01531007  RH  033%=      5-min Rain = 0
KFL1 181902Z 28016KT 15/M01 A2992 RMK A01 T01511013  RH  032%=      5-min Rain = 0
KFL1 181903Z 29018KT 14/M02 A2992 RMK A01 T01441018  RH  033%=      5-min Rain = 0
KFL1 181904Z 29018KT 15/M01 A2992 RMK A01 T01451012  RH  034%=      5-min Rain = 0
KFL1 181905Z 28014G22KT 14/M02 A2992 RMK A01 T01411016  RH  034%=      5-min Rain = 0
KFL1 181906Z 26013G19KT 13/M02 A2992 RMK A01 T01341023  RH  034%=      5-min Rain = 0
KFL1 181907Z 27017G22KT 13/M02 A2992 RMK A01 T01281022  RH  035%=      5-min Rain = 0
KFL1 181908Z 25017KT 13/M02 A2992 RMK A01 T01291017  RH  036%=      5-min Rain = 0
KFL1 181909Z 25014KT 13/M01 A2992 RMK A01 T01331014  RH  036%=      5-min Rain = 0
KFL1 181910Z 26013KT 14/M01 A2992 RMK A01 T01361014  RH  035%=      5-min Rain = 0
KFL1 181911Z 26014KT 14/M01 A2992 RMK A01 T01381014  RH  035%=      5-min Rain = 0
KFL1 181912Z 25011G16KT 14/M01 A2992 RMK A01 T01401011  RH  035%=      5-min Rain = 0
KFL1 181913Z 25012KT 14/M01 A2992 RMK A01 T01441006  RH  035%=      5-min Rain = 0
KFL1 181914Z 27015KT 15/M01 A2992 RMK A01 T01461008  RH  035%=      5-min Rain = 0
KFL1 181915Z 29015KT 15/M01 A2992 RMK A01 T01481008  RH  034%=      5-min Rain = 0
KFL1 181916Z 28018KT 15/M01 A2992 RMK A01 T01501010  RH  033%=      5-min Rain = 0
KFL1 181917Z 29012G19KT 14/M02 A2992 RMK A01 T01431020  RH  032%=      5-min Rain = 0
KFL1 181918Z 30014G19KT 14/M02 A2992 RMK A01 T01361022  RH  033%=      5-min Rain = 0
KFL1 181919Z 30017KT 14/M02 A2992 RMK A01 T01351019  RH  034%=      5-min Rain = 0
KFL1 181920Z 31018KT 14/M01 A2992 RMK A01 T01401011  RH  035%=      5-min Rain = 0
KFL1 181921Z 30017KT 14/M01 A2992 RMK A01 T01431013  RH  034%=      5-min Rain = 0
KFL1 181922Z 30015KT 14/M02 A2992 RMK A01 T01421016  RH  033%=      5-min Rain = 0
KFL1 181923Z 31018G23KT 14/M01 A2992 RMK A01 T01441012  RH  034%=      5-min Rain = 0
KFL1 181924Z 30016KT 15/M01 A2992 RMK A01 T01451014  RH  034%=      5-min Rain = 0
KFL1 181925Z 30019G24KT 14/M02 A2992 RMK A01 T01431017  RH  033%=      5-min Rain = 0
KFL1 181926Z 30017KT 14/M02 A2992 RMK A01 T01351023  RH  033%=      5-min Rain = 0
KFL1 181927Z 29017KT 13/M02 A2992 RMK A01 T01291023  RH  035%=      5-min Rain = 0
KFL1 181928Z 30013KT 12/M02 A2992 RMK A01 T01231023  RH  036%=      5-min Rain = 0
KFL1 181929Z 29013KT 12/M02 A2992 RMK A01 T01221020  RH  037%=      5-min Rain = 0
KFL1 181930Z 30018G24KT 12/M02 A2992 RMK A01 T01221016  RH  038%=      5-min Rain = 0
KFL1 181931Z 29015G20KT 12/M02 A2992 RMK A01 T01221018  RH  038%=      5-min Rain = 0
KFL1 181932Z 30017KT 12/M02 A2992 RMK A01 T01211019  RH  038%=      5-min Rain = 0
KFL1 181933Z 32013G18KT 12/M02 A2992 RMK A01 T01181021  RH  038%=      5-min Rain = 0
KFL1 181934Z 31019G24KT 12/M02 A2992 RMK A01 T01161023  RH  038%=      5-min Rain = 0
KFL1 181935Z 30017KT 12/M02 A2992 RMK A01 T01181019  RH  038%=      5-min Rain = 0
KFL1 181936Z 29015G20KT 13/M01 A2992 RMK A01 T01251014  RH  038%=      5-min Rain = 0
KFL1 181937Z 29015KT 13/M01 A2992 RMK A01 T01311014  RH  036%=      5-min Rain = 0
KFL1 181938Z 28015KT 14/M01 A2992 RMK A01 T01361014  RH  035%=      5-min Rain = 0
KFL1 181939Z 29014KT 14/M02 A2992 RMK A01 T01391016  RH  034%=      5-min Rain = 0
KFL1 181940Z 28014KT 14/M02 A2992 RMK A01 T01401017  RH  034%=      5-min Rain = 0
KFL1 181941Z 27018KT 14/M02 A2992 RMK A01 T01421017  RH  033%=      5-min Rain = 0
KFL1 181942Z 27016G22KT 14/M02 A2992 RMK A01 T01381022  RH  033%=      5-min Rain = 0
KFL1 181943Z 27021KT 14/M02 A2992 RMK A01 T01391017  RH  034%=      5-min Rain = 0
KFL1 181944Z 27016G21KT 14/M02 A2992 RMK A01 T01391021  RH  033%=      5-min Rain = 0
KFL1 181945Z 27020KT 14/M02 A2992 RMK A01 T01391020  RH  033%=      5-min Rain = 0
KFL1 181946Z 27021KT 14/M02 A2992 RMK A01 T01381023  RH  033%=      5-min Rain = 0
KFL1 181947Z 27019KT 14/M02 A2992 RMK A01 T01371022  RH  033%=      5-min Rain = 0
KFL1 181948Z 27014KT 14/M02 A2992 RMK A01 T01371020  RH  034%=      5-min Rain = 0
KFL1 181949Z 29017KT 14/M02 A2992 RMK A01 T01351022  RH  034%=      5-min Rain = 0
KFL1 181950Z 30016KT 14/M02 A2992 RMK A01 T01391015  RH  034%=      5-min Rain = 0
KFL1 181951Z 30015KT 14/M02 A2992 RMK A01 T01421021  RH  032%=      5-min Rain = 0
KFL1 181952Z 27012KT 14/M02 A2992 RMK A01 T01411018  RH  033%=      5-min Rain = 0
KFL1 181953Z 28013KT 14/M02 A2992 RMK A01 T01421020  RH  033%=      5-min Rain = 0
KFL1 181954Z 30016KT 14/M02 A2992 RMK A01 T01431015  RH  034%=      5-min Rain = 0
KFL1 181955Z 29021KT 15/M02 A2992 RMK A01 T01451018  RH  033%=      5-min Rain = 0
KFL1 181956Z 29020G25KT 14/M02 A2992 RMK A01 T01411018  RH  033%=      5-min Rain = 0
KFL1 181957Z 30016G22KT 14/M02 A2992 RMK A01 T01351024  RH  033%=      5-min Rain = 0
KFL1 181958Z 30017KT 13/M02 A2992 RMK A01 T01311021  RH  035%=      5-min Rain = 0
KFL1 181959Z 29014KT 13/M02 A2992 RMK A01 T01281021  RH  035%=      5-min Rain = 0
KFL1 182000Z 30018KT 13/M02 A2992 RMK A01 T01281020  RH  036%=      5-min Rain = 0
KFL1 182001Z 29021KT 13/M02 A2992 RMK A01 T01281023  RH  035%=      5-min Rain = 0
KFL1 182002Z 29021G26KT 13/M03 A2992 RMK A01 T01251026  RH  035%=      5-min Rain = 0
KFL1 182003Z 29022G27KT 12/M03 A2992 RMK A01 T01211027  RH  036%=      5-min Rain = 0
KFL1 182004Z 29019KT 12/M03 A2992 RMK A01 T01191027  RH  036%=      5-min Rain = 0
KFL1 182005Z 30017KT 12/M02 A2992 RMK A01 T01211023  RH  037%=      5-min Rain = 0
KFL1 182006Z 29018G25KT 13/M02 A2992 RMK A01 T01261021  RH  036%=      5-min Rain = 0
KFL1 182007Z 30019G24KT 13/M02 A2992 RMK A01 T01291021  RH  035%=      5-min Rain = 0
KFL1 182008Z 30015KT 13/M02 A2992 RMK A01 T01321022  RH  034%=      5-min Rain = 0
KFL1 182009Z 29016KT 14/M02 A2992 RMK A01 T01351021  RH  034%=      5-min Rain = 0
KFL1 182010Z 30015KT 13/M02 A2992 RMK A01 T01341023  RH  034%=      5-min Rain = 0
KFL1 182011Z 28013G19KT 14/M02 A2992 RMK A01 T01351020  RH  034%=      5-min Rain = 0
KFL1 182012Z 29020G27KT 14/M02 A2992 RMK A01 T01351020  RH  034%=      5-min Rain = 0
KFL1 182013Z 30018KT 14/M02 A2992 RMK A01 T01351020  RH  034%=      5-min Rain = 0
KFL1 182014Z 30017KT 14/M02 A2992 RMK A01 T01371021  RH  034%=      5-min Rain = 0
KFL1 182015Z 29016KT 14/M02 A2992 RMK A01 T01381018  RH  034%=      5-min Rain = 0
KFL1 182016Z 31014G20KT 14/M02 A2992 RMK A01 T01381019  RH  034%=      5-min Rain = 0
KFL1 182017Z 32019G25KT 14/M02 A2992 RMK A01 T01411018  RH  033%=      5-min Rain = 0
KFL1 182018Z 31021KT 14/M02 A2992 RMK A01 T01371022  RH  033%=      5-min Rain = 0
KFL1 182019Z 30016KT 14/M02 A2992 RMK A01 T01361022  RH  033%=      5-min Rain = 0
KFL1 182020Z 31022KT 13/M02 A2992 RMK A01 T01331023  RH  034%=      5-min Rain = 0
KFL1 182021Z 29019KT 13/M03 A2992 RMK A01 T01291027  RH  034%=      5-min Rain = 0
KFL1 182022Z 28021G26KT 13/M03 A2992 RMK A01 T01251029  RH  034%=      5-min Rain = 0
KFL1 182023Z 28021G26KT 13/M03 A2992 RMK A01 T01271027  RH  034%=      5-min Rain = 0
KFL1 182024Z 28021KT 13/M03 A2992 RMK A01 T01281028  RH  034%=      5-min Rain = 0
KFL1 182025Z 29019KT 12/M03 A2992 RMK A01 T01241030  RH  034%=      5-min Rain = 0
KFL1 182026Z 28017KT 12/M03 A2992 RMK A01 T01231028  RH  035%=      5-min Rain = 0
KFL1 182027Z 29016KT 13/M03 A2992 RMK A01 T01251026  RH  035%=      5-min Rain = 0
KFL1 182028Z 29016G23KT 13/M02 A2992 RMK A01 T01291023  RH  035%=      5-min Rain = 0
KFL1 182029Z 29012KT 13/M02 A2992 RMK A01 T01331022  RH  034%=      5-min Rain = 0
KFL1 182030Z 26017G23KT 14/M02 A2992 RMK A01 T01381020  RH  034%=      5-min Rain = 0
KFL1 182031Z 27015KT 14/M03 A2992 RMK A01 T01371025  RH  032%=      5-min Rain = 0
KFL1 182032Z 27016G21KT 14/M03 A2992 RMK A01 T01351026  RH  033%=      5-min Rain = 0
KFL1 182033Z 28013KT 14/M03 A2992 RMK A01 T01351026  RH  033%=      5-min Rain = 0
KFL1 182034Z 27013KT 13/M03 A2992 RMK A01 T01341025  RH  033%=      5-min Rain = 0
KFL1 182035Z 30016KT 13/M03 A2992 RMK A01 T01341025  RH  033%=      5-min Rain = 0
KFL1 182036Z 30017KT 14/M02 A2992 RMK A01 T01351024  RH  033%=      5-min Rain = 0
KFL1 182037Z 30018KT 14/M03 A2992 RMK A01 T01361025  RH  033%=      5-min Rain = 0
KFL1 182038Z 30012KT 13/M03 A2992 RMK A01 T01341029  RH  032%=      5-min Rain = 0
KFL1 182039Z 29014G19KT 13/M03 A2992 RMK A01 T01291033  RH  032%=      5-min Rain = 0
KFL1 182040Z 28018KT 13/M03 A2992 RMK A01 T01271033  RH  033%=      5-min Rain = 0
KFL1 182041Z 28021G26KT 13/M03 A2992 RMK A01 T01301033  RH  032%=      5-min Rain = 0
KFL1 182042Z 29019KT 13/M03 A2992 RMK A01 T01301033  RH  032%=      5-min Rain = 0
KFL1 182043Z 28019G24KT 13/M03 A2992 RMK A01 T01301034  RH  032%=      5-min Rain = 0
KFL1 182044Z 29017KT 13/M03 A2993 RMK A01 T01291034  RH  032%=      5-min Rain = 0
KFL1 182045Z 28017KT 13/M03 A2993 RMK A01 T01291029  RH  033%=      5-min Rain = 0
KFL1 182046Z 29013KT 13/M03 A2993 RMK A01 T01331028  RH  033%=      5-min Rain = 0
KFL1 182047Z 28017G25KT 14/M03 A2993 RMK A01 T01351034  RH  031%=      5-min Rain = 0
KFL1 182048Z 27019KT 14/M03 A2992 RMK A01 T01351033  RH  031%=      5-min Rain = 0
KFL1 182049Z 28018G24KT 13/M04 A2993 RMK A01 T01291038  RH  031%=      5-min Rain = 0
KFL1 182050Z 29014G19KT 12/M04 A2993 RMK A01 T01221039  RH  032%=      5-min Rain = 0
KFL1 182051Z 29018KT 12/M04 A2993 RMK A01 T01161040  RH  033%=      5-min Rain = 0
KFL1 182052Z 28015G20KT 12/M04 A2993 RMK A01 T01171035  RH  034%=      5-min Rain = 0
KFL1 182053Z 29013KT 12/M04 A2993 RMK A01 T01221035  RH  033%=      5-min Rain = 0
KFL1 182054Z 27015KT 13/M03 A2993 RMK A01 T01261032  RH  033%=      5-min Rain = 0
KFL1 182055Z 28015KT 13/M03 A2993 RMK A01 T01271033  RH  033%=      5-min Rain = 0
KFL1 182056Z 28019G25KT 13/M03 A2993 RMK A01 T01301031  RH  033%=      5-min Rain = 0
KFL1 182057Z 28017KT 13/M03 A2993 RMK A01 T01331031  RH  032%=      5-min Rain = 0
KFL1 182058Z 29020KT 13/M03 A2993 RMK A01 T01341032  RH  032%=      5-min Rain = 0
KFL1 182059Z 29015KT 14/M03 A2993 RMK A01 T01351030  RH  032%=      5-min Rain = 0
KFL1 182100Z 27015G20KT 14/M03 A2993 RMK A01 T01381029  RH  031%=      5-min Rain = 0
KFL1 182101Z 28018G24KT 14/M03 A2993 RMK A01 T01411031  RH  030%=      5-min Rain = 0
KFL1 182102Z 29014KT 14/M03 A2993 RMK A01 T01401034  RH  030%=      5-min Rain = 0
KFL1 182103Z 27014KT 14/M03 A2993 RMK A01 T01401034  RH  030%=      5-min Rain = 0
KFL1 182104Z 28017G23KT 14/M04 A2993 RMK A01 T01371037  RH  030%=      5-min Rain = 0
KFL1 182105Z 28020KT 14/M04 A2993 RMK A01 T01361036  RH  030%=      5-min Rain = 0
KFL1 182106Z 29021G27KT 14/M04 A2993 RMK A01 T01351036  RH  030%=      5-min Rain = 0
KFL1 182107Z 31018KT 13/M04 A2993 RMK A01 T01341036  RH  030%=      5-min Rain = 0
KFL1 182108Z 29018G24KT 13/M04 A2993 RMK A01 T01341036  RH  031%=      5-min Rain = 0
KFL1 182109Z 29022KT 13/M03 A2993 RMK A01 T01341034  RH  031%=      5-min Rain = 0
KFL1 182110Z 30017G23KT 14/M03 A2993 RMK A01 T01351034  RH  031%=      5-min Rain = 0
KFL1 182111Z 30020G26KT 13/M04 A2993 RMK A01 T01341035  RH  031%=      5-min Rain = 0
KFL1 182112Z 30019KT 13/M04 A2993 RMK A01 T01341039  RH  030%=      5-min Rain = 0
KFL1 182113Z 30021KT 13/M04 A2993 RMK A01 T01311042  RH  030%=      5-min Rain = 0
KFL1 182114Z 30015KT 13/M04 A2993 RMK A01 T01291040  RH  031%=      5-min Rain = 0
KFL1 182115Z 29020KT 13/M04 A2993 RMK A01 T01321038  RH  030%=      5-min Rain = 0
KFL1 182116Z 30019G25KT 13/M04 A2994 RMK A01 T01321038  RH  030%=      5-min Rain = 0
KFL1 182117Z 30021KT 13/M04 A2994 RMK A01 T01321040  RH  030%=      5-min Rain = 0
KFL1 182118Z 30019KT 13/M04 A2994 RMK A01 T01301041  RH  030%=      5-min Rain = 0
KFL1 182119Z 31017KT 13/M04 A2994 RMK A01 T01301041  RH  030%=      5-min Rain = 0
KFL1 182120Z 31016KT 13/M04 A2994 RMK A01 T01311038  RH  031%=      5-min Rain = 0
KFL1 182121Z 30017KT 13/M04 A2994 RMK A01 T01311037  RH  031%=      5-min Rain = 0
KFL1 182122Z 30017G23KT 13/M04 A2994 RMK A01 T01311037  RH  031%=      5-min Rain = 0
KFL1 182123Z 31016KT 13/M04 A2994 RMK A01 T01321037  RH  031%=      5-min Rain = 0
KFL1 182124Z 31013KT 13/M04 A2994 RMK A01 T01341036  RH  031%=      5-min Rain = 0
KFL1 182125Z 32009G15KT 14/M04 A2994 RMK A01 T01361037  RH  030%=      5-min Rain = 0
KFL1 182126Z 31010G15KT 14/M04 A2994 RMK A01 T01351039  RH  030%=      5-min Rain = 0
KFL1 182127Z 32016G21KT 14/M04 A2994 RMK A01 T01381035  RH  030%=      5-min Rain = 0
KFL1 182128Z 32012KT 14/M04 A2994 RMK A01 T01361036  RH  030%=      5-min Rain = 0
KFL1 182129Z 30013KT 14/M03 A2994 RMK A01 T01371032  RH  031%=      5-min Rain = 0
KFL1 182130Z 29013KT 14/M03 A2994 RMK A01 T01381034  RH  030%=      5-min Rain = 0
KFL1 182131Z 30018G24KT 14/M03 A2994 RMK A01 T01401033  RH  030%=      5-min Rain = 0
KFL1 182132Z 31020G25KT 14/M04 A2994 RMK A01 T01381036  RH  030%=      5-min Rain = 0
KFL1 182133Z 31016G22KT 13/M04 A2994 RMK A01 T01341039  RH  030%=      5-min Rain = 0
KFL1 182134Z 28019G25KT 13/M04 A2994 RMK A01 T01321038  RH  031%=      5-min Rain = 0
KFL1 182135Z 29021G27KT 13/M04 A2994 RMK A01 T01291044  RH  030%=      5-min Rain = 0
KFL1 182136Z 29015KT 12/M05 A2994 RMK A01 T01241045  RH  030%=      5-min Rain = 0
KFL1 182137Z 29019G25KT 12/M05 A2994 RMK A01 T01201047  RH  031%=      5-min Rain = 0
KFL1 182138Z 29019G24KT 12/M05 A2994 RMK A01 T01191045  RH  032%=      5-min Rain = 0
KFL1 182139Z 30016KT 12/M04 A2994 RMK A01 T01221039  RH  032%=      5-min Rain = 0
KFL1 182140Z 31018KT 13/M04 A2994 RMK A01 T01251036  RH  032%=      5-min Rain = 0
KFL1 182141Z 31016G21KT 13/M04 A2994 RMK A01 T01251041  RH  031%=      5-min Rain = 0
KFL1 182142Z 30015KT 12/M04 A2995 RMK A01 T01241041  RH  031%=      5-min Rain = 0
KFL1 182143Z 30013KT 12/M04 A2995 RMK A01 T01221040  RH  032%=      5-min Rain = 0
KFL1 182144Z 30013KT 12/M04 A2995 RMK A01 T01201040  RH  032%=      5-min Rain = 0
KFL1 182145Z 28014KT 13/M04 A2995 RMK A01 T01251035  RH  033%=      5-min Rain = 0
KFL1 182146Z 28014KT 13/M04 A2995 RMK A01 T01281039  RH  031%=      5-min Rain = 0
KFL1 182147Z 29016KT 13/M04 A2995 RMK A01 T01311036  RH  031%=      5-min Rain = 0
KFL1 182148Z 28015KT 13/M04 A2995 RMK A01 T01311040  RH  030%=      5-min Rain = 0
KFL1 182149Z 28018G24KT 13/M05 A2995 RMK A01 T01271045  RH  030%=      5-min Rain = 0
KFL1 182150Z 28018KT 12/M05 A2995 RMK A01 T01241046  RH  030%=      5-min Rain = 0
KFL1 182151Z 28018G23KT 13/M05 A2995 RMK A01 T01251045  RH  030%=      5-min Rain = 0
KFL1 182152Z 29016KT 12/M05 A2995 RMK A01 T01241048  RH  030%=      5-min Rain = 0
KFL1 182153Z 31015KT 13/M04 A2995 RMK A01 T01261043  RH  031%=      5-min Rain = 0
KFL1 182154Z 28016G22KT 13/M04 A2995 RMK A01 T01291039  RH  031%=      5-min Rain = 0
KFL1 182155Z 28019KT 13/M04 A2995 RMK A01 T01331040  RH  030%=      5-min Rain = 0
KFL1 182156Z 29016G23KT 13/M04 A2995 RMK A01 T01311041  RH  030%=      5-min Rain = 0
KFL1 182157Z 30012KT 13/M04 A2995 RMK A01 T01311043  RH  030%=      5-min Rain = 0
KFL1 182158Z 31013G19KT 13/M04 A2995 RMK A01 T01291043  RH  030%=      5-min Rain = 0
KFL1 182159Z 30015KT 13/M04 A2995 RMK A01 T01311042  RH  030%=      5-min Rain = 0
KFL1 182200Z 29013KT 13/M05 A2995 RMK A01 T01291046  RH  029%=      5-min Rain = 0
KFL1 182201Z 29013KT 13/M05 A2995 RMK A01 T01251050  RH  029%=      5-min Rain = 0
KFL1 182202Z 30013G19KT 12/M05 A2995 RMK A01 T01211050  RH  030%=      5-min Rain = 0
KFL1 182203Z 30017KT 12/M05 A2995 RMK A01 T01201050  RH  030%=      5-min Rain = 0
KFL1 182204Z 29016KT 12/M05 A2995 RMK A01 T01221050  RH  030%=      5-min Rain = 0
KFL1 182205Z 29017KT 12/M05 A2995 RMK A01 T01241049  RH  029%=      5-min Rain = 0
KFL1 182206Z 29019KT 13/M05 A2995 RMK A01 T01281047  RH  029%=      5-min Rain = 0
KFL1 182207Z 29018G23KT 13/M05 A2995 RMK A01 T01301049  RH  029%=      5-min Rain = 0
KFL1 182208Z 28018KT 13/M06 A2995 RMK A01 T01281055  RH  027%=      5-min Rain = 0
KFL1 182209Z 29016KT 13/M06 A2995 RMK A01 T01261058  RH  027%=      5-min Rain = 0
KFL1 182210Z 30015KT 13/M06 A2995 RMK A01 T01261056  RH  028%=      5-min Rain = 0
KFL1 182211Z 28013G18KT 13/M06 A2995 RMK A01 T01271058  RH  027%=      5-min Rain = 0
KFL1 182212Z 27011KT 13/M06 A2995 RMK A01 T01261063  RH  026%=      5-min Rain = 0
KFL1 182213Z 27010KT 13/M06 A2995 RMK A01 T01291057  RH  027%=      5-min Rain = 0
KFL1 182214Z 27020G27KT 13/M06 A2995 RMK A01 T01291057  RH  027%=      5-min Rain = 0
KFL1 182215Z 30019G24KT 13/M06 A2995 RMK A01 T01301058  RH  026%=      5-min Rain = 0
KFL1 182216Z 31017G23KT 13/M06 A2995 RMK A01 T01291064  RH  026%=      5-min Rain = 0
KFL1 182217Z 30021G26KT 13/M07 A2995 RMK A01 T01281068  RH  025%=      5-min Rain = 0
KFL1 182218Z 29020KT 13/M07 A2995 RMK A01 T01281069  RH  025%=      5-min Rain = 0
KFL1 182219Z 29020KT 13/M07 A2995 RMK A01 T01281070  RH  024%=      5-min Rain = 0
KFL1 182220Z 30017KT 12/M07 A2995 RMK A01 T01241071  RH  025%=      5-min Rain = 0
KFL1 182221Z 30015KT 12/M07 A2995 RMK A01 T01241067  RH  026%=      5-min Rain = 0
KFL1 182222Z 29017KT 12/M07 A2996 RMK A01 T01241065  RH  026%=      5-min Rain = 0
KFL1 182223Z 29014G19KT 13/M07 A2996 RMK A01 T01251066  RH  026%=      5-min Rain = 0
KFL1 182224Z 27011KT 13/M07 A2996 RMK A01 T01261069  RH  025%=      5-min Rain = 0
KFL1 182225Z 28011KT 12/M07 A2996 RMK A01 T01231074  RH  025%=      5-min Rain = 0
KFL1 182226Z 28008KT 12/M07 A2995 RMK A01 T01231071  RH  025%=      5-min Rain = 0
KFL1 182227Z 27010KT 13/M07 A2996 RMK A01 T01271066  RH  026%=      5-min Rain = 0
KFL1 182228Z 27011KT 13/M07 A2995 RMK A01 T01261070  RH  025%=      5-min Rain = 0
KFL1 182229Z 27013KT 13/M07 A2995 RMK A01 T01271069  RH  025%=      5-min Rain = 0
KFL1 182230Z 28014KT 13/M07 A2995 RMK A01 T01271067  RH  025%=      5-min Rain = 0
KFL1 182231Z 28012KT 13/M06 A2995 RMK A01 T01261064  RH  026%=      5-min Rain = 0
KFL1 182232Z 28015KT 13/M06 A2995 RMK A01 T01251063  RH  026%=      5-min Rain = 0
KFL1 182233Z 26013KT 12/M06 A2995 RMK A01 T01241062  RH  027%=      5-min Rain = 0
KFL1 182234Z 26015G20KT 13/M06 A2995 RMK A01 T01251059  RH  027%=      5-min Rain = 0
KFL1 182235Z 27017KT 13/M06 A2995 RMK A01 T01251057  RH  028%=      5-min Rain = 0
KFL1 182236Z 28014KT 12/M06 A2995 RMK A01 T01241058  RH  028%=      5-min Rain = 0
KFL1 182237Z 28014G25KT 12/M06 A2995 RMK A01 T01231058  RH  028%=      5-min Rain = 0
KFL1 182238Z 29022G28KT 12/M06 A2995 RMK A01 T01241057  RH  028%=      5-min Rain = 0
KFL1 182239Z 30016KT 12/M06 A2996 RMK A01 T01241058  RH  028%=      5-min Rain = 0
KFL1 182240Z 29013KT 12/M06 A2996 RMK A01 T01241057  RH  028%=      5-min Rain = 0
KFL1 182241Z 26013G18KT 13/M06 A2996 RMK A01 T01251059  RH  027%=      5-min Rain = 0
KFL1 182242Z 27013KT 13/M06 A2996 RMK A01 T01251058  RH  027%=      5-min Rain = 0
KFL1 182243Z 27014KT 13/M06 A2996 RMK A01 T01251058  RH  028%=      5-min Rain = 0
KFL1 182244Z 29019KT 13/M06 A2996 RMK A01 T01251062  RH  027%=      5-min Rain = 0
KFL1 182245Z 28014KT 13/M07 A2996 RMK A01 T01251065  RH  026%=      5-min Rain = 0
KFL1 182246Z 29010KT 12/M07 A2996 RMK A01 T01231069  RH  025%=      5-min Rain = 0
KFL1 182247Z 27010KT 12/M07 A2996 RMK A01 T01231067  RH  026%=      5-min Rain = 0
KFL1 182248Z 29013G24KT 12/M07 A2996 RMK A01 T01231069  RH  026%=      5-min Rain = 0
KFL1 182249Z 29018KT 12/M07 A2996 RMK A01 T01241066  RH  026%=      5-min Rain = 0
KFL1 182250Z 28019KT 13/M06 A2996 RMK A01 T01261063  RH  026%=      5-min Rain = 0
KFL1 182251Z 28015KT 12/M07 A2996 RMK A01 T01221068  RH  026%=      5-min Rain = 0
KFL1 182252Z 28015KT 12/M07 A2996 RMK A01 T01211067  RH  026%=      5-min Rain = 0
KFL1 182253Z 27017G22KT 12/M07 A2996 RMK A01 T01201066  RH  027%=      5-min Rain = 0
KFL1 182254Z 27019KT 12/M06 A2996 RMK A01 T01201064  RH  027%=      5-min Rain = 0
KFL1 182255Z 29016G21KT 12/M06 A2996 RMK A01 T01211063  RH  027%=      5-min Rain = 0
KFL1 182256Z 29011KT 12/M06 A2996 RMK A01 T01191064  RH  027%=      5-min Rain = 0
KFL1 182257Z 29013KT 12/M07 A2996 RMK A01 T01191066  RH  027%=      5-min Rain = 0
KFL1 182258Z 29013KT 12/M07 A2996 RMK A01 T01201065  RH  027%=      5-min Rain = 0
KFL1 182259Z 29015KT 12/M06 A2996 RMK A01 T01221063  RH  027%=      5-min Rain = 0
KFL1 182300Z 29018KT 12/M06 A2996 RMK A01 T01231063  RH  027%=      5-min Rain = 0
KFL1 182301Z 28015KT 12/M07 A2996 RMK A01 T01221067  RH  026%=      5-min Rain = 0
KFL1 182302Z 29013KT 12/M07 A2996 RMK A01 T01211068  RH  026%=      5-min Rain = 0
KFL1 182303Z 28017KT 12/M07 A2996 RMK A01 T01191069  RH  026%=      5-min Rain = 0
KFL1 182304Z 29016KT 12/M07 A2996 RMK A01 T01191072  RH  026%=      5-min Rain = 0
KFL1 182305Z 29017G22KT 12/M08 A2996 RMK A01 T01191076  RH  025%=      5-min Rain = 0
KFL1 182306Z 30016KT 12/M08 A2996 RMK A01 T01181078  RH  025%=      5-min Rain = 0
KFL1 182307Z 30013G18KT 12/M08 A2996 RMK A01 T01181078  RH  025%=      5-min Rain = 0
KFL1 182308Z 29013KT 12/M08 A2996 RMK A01 T01181081  RH  024%=      5-min Rain = 0
KFL1 182309Z 29014KT 12/M08 A2996 RMK A01 T01161081  RH  024%=      5-min Rain = 0
KFL1 182310Z 29014KT 12/M08 A2997 RMK A01 T01161080  RH  025%=      5-min Rain = 0
KFL1 182311Z 30013KT 12/M08 A2997 RMK A01 T01171079  RH  025%=      5-min Rain = 0
KFL1 182312Z 29013KT 12/M08 A2996 RMK A01 T01181080  RH  024%=      5-min Rain = 0
KFL1 182313Z 28013KT 12/M08 A2996 RMK A01 T01161084  RH  024%=      5-min Rain = 0
KFL1 182314Z 29010KT 12/M08 A2996 RMK A01 T01161082  RH  024%=      5-min Rain = 0
KFL1 182315Z 29009KT 12/M08 A2997 RMK A01 T01151080  RH  025%=      5-min Rain = 0
KFL1 182316Z 28010KT 12/M08 A2997 RMK A01 T01171078  RH  025%=      5-min Rain = 0
KFL1 182317Z 28013G19KT 12/M08 A2996 RMK A01 T01161079  RH  025%=      5-min Rain = 0
KFL1 182318Z 28016KT 12/M08 A2996 RMK A01 T01161076  RH  025%=      5-min Rain = 0
KFL1 182319Z 27014KT 12/M08 A2996 RMK A01 T01161077  RH  025%=      5-min Rain = 0
KFL1 182320Z 27013KT 12/M08 A2996 RMK A01 T01161076  RH  025%=      5-min Rain = 0
KFL1 182321Z 27014KT 11/M08 A2996 RMK A01 T01141080  RH  025%=      5-min Rain = 0
KFL1 182322Z 29013KT 11/M08 A2996 RMK A01 T01141079  RH  025%=      5-min Rain = 0
KFL1 182323Z 29011G17KT 12/M08 A2997 RMK A01 T01151078  RH  025%=      5-min Rain = 0
KFL1 182324Z 30013KT 12/M08 A2997 RMK A01 T01151078  RH  025%=      5-min Rain = 0
KFL1 182325Z 29014KT 11/M08 A2997 RMK A01 T01141080  RH  025%=      5-min Rain = 0
KFL1 182326Z 29013KT 11/M08 A2997 RMK A01 T01121083  RH  025%=      5-min Rain = 0
KFL1 182327Z 30014KT 11/M08 A2997 RMK A01 T01111082  RH  025%=      5-min Rain = 0
KFL1 182328Z 30013KT 11/M08 A2997 RMK A01 T01121081  RH  025%=      5-min Rain = 0
KFL1 182329Z 31010KT 11/M08 A2997 RMK A01 T01101084  RH  025%=      5-min Rain = 0
KFL1 182330Z 28008KT 11/M08 A2997 RMK A01 T01121084  RH  025%=      5-min Rain = 0
KFL1 182331Z 29008KT 11/M09 A2997 RMK A01 T01131085  RH  024%=      5-min Rain = 0
KFL1 182332Z 28008KT 11/M09 A2997 RMK A01 T01121086  RH  024%=      5-min Rain = 0
KFL1 182333Z 28007KT 11/M09 A2996 RMK A01 T01131087  RH  024%=      5-min Rain = 0
KFL1 182334Z 28008KT 11/M09 A2996 RMK A01 T01131086  RH  024%=      5-min Rain = 0
KFL1 182335Z 29009KT 11/M09 A2996 RMK A01 T01111088  RH  024%=      5-min Rain = 0
KFL1 182336Z 27009KT 11/M09 A2996 RMK A01 T01101090  RH  024%=      5-min Rain = 0
KFL1 182337Z 27013KT 11/M09 A2996 RMK A01 T01101091  RH  023%=      5-min Rain = 0
KFL1 182338Z 29014KT 11/M09 A2996 RMK A01 T01111091  RH  023%=      5-min Rain = 0
KFL1 182339Z 27010KT 11/M09 A2996 RMK A01 T01091093  RH  023%=      5-min Rain = 0
KFL1 182340Z 27013KT 11/M09 A2996 RMK A01 T01091094  RH  023%=      5-min Rain = 0
KFL1 182341Z 29011KT 11/M10 A2996 RMK A01 T01081095  RH  023%=      5-min Rain = 0
KFL1 182342Z 30010KT 11/M09 A2996 RMK A01 T01091093  RH  023%=      5-min Rain = 0
KFL1 182343Z 27010KT 11/M09 A2997 RMK A01 T01091090  RH  024%=      5-min Rain = 0
KFL1 182344Z 26012KT 11/M09 A2996 RMK A01 T01071093  RH  024%=      5-min Rain = 0
KFL1 182345Z 27011KT 11/M09 A2996 RMK A01 T01081094  RH  023%=      5-min Rain = 0
KFL1 182346Z 29010KT 11/M10 A2996 RMK A01 T01061095  RH  023%=      5-min Rain = 0
KFL1 182347Z 28012KT 11/M10 A2996 RMK A01 T01051096  RH  023%=      5-min Rain = 0
KFL1 182348Z 28010KT 11/M10 A2996 RMK A01 T01051098  RH  023%=      5-min Rain = 0
KFL1 182349Z 29008KT 11/M10 A2997 RMK A01 T01051096  RH  023%=      5-min Rain = 0
KFL1 182350Z 28009KT 10/M10 A2997 RMK A01 T01041095  RH  024%=      5-min Rain = 0
KFL1 182351Z 27010KT 10/M10 A2997 RMK A01 T01041095  RH  024%=      5-min Rain = 0
KFL1 182352Z 27008KT 11/M09 A2997 RMK A01 T01051093  RH  024%=      5-min Rain = 0
KFL1 182353Z 27010KT 10/M09 A2997 RMK A01 T01031093  RH  024%=      5-min Rain = 0
KFL1 182354Z 27012KT 10/M10 A2997 RMK A01 T01011095  RH  024%=      5-min Rain = 0
KFL1 182355Z 27011KT 10/M10 A2997 RMK A01 T01011097  RH  024%=      5-min Rain = 0
KFL1 182356Z 27011KT 10/M10 A2997 RMK A01 T00991099  RH  024%=      5-min Rain = 0
KFL1 182357Z 28012G18KT 10/M10 A2997 RMK A01 T00991099  RH  024%=      5-min Rain = 0
KFL1 182358Z 27015KT 10/M10 A2997 RMK A01 T00971100  RH  024%=      5-min Rain = 0
KFL1 182359Z 28011KT 10/M10 A2997 RMK A01 T00971102  RH  023%=      5-min Rain = 0
KFL1 190000Z 28012G18KT 10/M10 A2997 RMK A01 T00971102  RH  023%=      5-min Rain = 0
KFL1 190001Z 28012KT 10/M10 A2997 RMK A01 T01001099  RH  024%=      5-min Rain = 0
KFL1 190002Z 28011KT 10/M10 A2997 RMK A01 T00971101  RH  024%=      5-min Rain = 0
KFL1 190003Z 29012KT 10/M10 A2997 RMK A01 T00971102  RH  024%=      5-min Rain = 0
KFL1 190004Z 27013KT 10/M10 A2997 RMK A01 T00951102  RH  024%=      5-min Rain = 0
KFL1 190005Z 28014KT 09/M10 A2997 RMK A01 T00941103  RH  024%=      5-min Rain = 0
KFL1 190006Z 28013G18KT 09/M10 A2997 RMK A01 T00941104  RH  024%=      5-min Rain = 0
KFL1 190007Z 29012KT 09/M11 A2997 RMK A01 T00931106  RH  023%=      5-min Rain = 0
KFL1 190008Z 27010G15KT 09/M11 A2997 RMK A01 T00931106  RH  023%=      5-min Rain = 0
KFL1 190009Z 28015KT 09/M11 A2997 RMK A01 T00921107  RH  023%=      5-min Rain = 0
KFL1 190010Z 29013KT 09/M11 A2997 RMK A01 T00921110  RH  023%=      5-min Rain = 0
KFL1 190011Z 28015KT 09/M11 A2997 RMK A01 T00921111  RH  023%=      5-min Rain = 0
KFL1 190012Z 28014G19KT 09/M11 A2997 RMK A01 T00921111  RH  023%=      5-min Rain = 0
KFL1 190013Z 29011KT 09/M11 A2997 RMK A01 T00921111  RH  023%=      5-min Rain = 0
KFL1 190014Z 28010KT 09/M11 A2998 RMK A01 T00921110  RH  023%=      5-min Rain = 0
KFL1 190015Z 28011G16KT 09/M11 A2998 RMK A01 T00901111  RH  023%=      5-min Rain = 0
KFL1 190016Z 28012KT 09/M11 A2998 RMK A01 T00891112  RH  023%=      5-min Rain = 0
KFL1 190017Z 28013KT 09/M11 A2998 RMK A01 T00881111  RH  023%=      5-min Rain = 0
KFL1 190018Z 27014KT 09/M11 A2998 RMK A01 T00871112  RH  023%=      5-min Rain = 0
KFL1 190019Z 28011KT 09/M11 A2998 RMK A01 T00871114  RH  023%=      5-min Rain = 0
KFL1 190020Z 28011G16KT 09/M11 A2998 RMK A01 T00871113  RH  023%=      5-min Rain = 0
KFL1 190021Z 28012KT 09/M12 A2998 RMK A01 T00861115  RH  023%=      5-min Rain = 0
KFL1 190022Z 28014KT 09/M12 A2998 RMK A01 T00861115  RH  023%=      5-min Rain = 0
KFL1 190023Z 28012KT 09/M12 A2998 RMK A01 T00861115  RH  023%=      5-min Rain = 0
KFL1 190024Z 28012KT 09/M12 A2998 RMK A01 T00861116  RH  023%=      5-min Rain = 0
KFL1 190025Z 29012KT 09/M12 A2998 RMK A01 T00861116  RH  023%=      5-min Rain = 0
KFL1 190026Z 28011KT 09/M12 A2998 RMK A01 T00861116  RH  023%=      5-min Rain = 0
KFL1 190027Z 29012KT 09/M12 A2998 RMK A01 T00851115  RH  023%=      5-min Rain = 0
KFL1 190028Z 29009KT 08/M12 A2998 RMK A01 T00821117  RH  023%=      5-min Rain = 0
KFL1 190029Z 28008KT 08/M12 A2998 RMK A01 T00831115  RH  023%=      5-min Rain = 0
KFL1 190030Z 29010KT 08/M12 A2998 RMK A01 T00791116  RH  024%=      5-min Rain = 0
KFL1 190031Z 29009KT 08/M12 A2998 RMK A01 T00781115  RH  024%=      5-min Rain = 0
KFL1 190032Z 29009KT 08/M12 A2998 RMK A01 T00771117  RH  024%=      5-min Rain = 0
KFL1 190033Z 28011KT 08/M12 A2998 RMK A01 T00781117  RH  024%=      5-min Rain = 0
KFL1 190034Z 29012KT 08/M12 A2998 RMK A01 T00791117  RH  023%=      5-min Rain = 0
KFL1 190035Z 29011KT 08/M12 A2998 RMK A01 T00801117  RH  023%=      5-min Rain = 0
KFL1 190036Z 29012KT 08/M12 A2998 RMK A01 T00801117  RH  023%=      5-min Rain = 0
KFL1 190037Z 28008KT 08/M12 A2998 RMK A01 T00791118  RH  023%=      5-min Rain = 0
KFL1 190038Z 28009KT 08/M12 A2998 RMK A01 T00781117  RH  024%=      5-min Rain = 0
KFL1 190039Z 28010KT 08/M12 A2998 RMK A01 T00781117  RH  024%=      5-min Rain = 0
KFL1 190040Z 28010KT 08/M12 A2998 RMK A01 T00761121  RH  023%=      5-min Rain = 0
KFL1 190041Z 28009KT 08/M12 A2999 RMK A01 T00771120  RH  023%=      5-min Rain = 0
KFL1 190042Z 28008KT 08/M12 A2999 RMK A01 T00761120  RH  023%=      5-min Rain = 0
KFL1 190043Z 28010KT 07/M12 A2999 RMK A01 T00741121  RH  024%=      5-min Rain = 0
KFL1 190044Z 28011KT 07/M12 A2999 RMK A01 T00741121  RH  024%=      5-min Rain = 0
KFL1 190045Z 28010KT 07/M12 A2999 RMK A01 T00721122  RH  024%=      5-min Rain = 0
KFL1 190046Z 28009KT 07/M12 A2999 RMK A01 T00721121  RH  024%=      5-min Rain = 0
KFL1 190047Z 29011KT 07/M12 A2999 RMK A01 T00711123  RH  024%=      5-min Rain = 0
KFL1 190048Z 28008KT 07/M12 A2999 RMK A01 T00731123  RH  023%=      5-min Rain = 0
KFL1 190049Z 29009KT 07/M12 A2999 RMK A01 T00721124  RH  023%=      5-min Rain = 0
KFL1 190050Z 29010KT 07/M12 A2999 RMK A01 T00721123  RH  023%=      5-min Rain = 0
KFL1 190051Z 28008KT 07/M12 A2999 RMK A01 T00701124  RH  024%=      5-min Rain = 0
KFL1 190052Z 29009KT 07/M12 A2999 RMK A01 T00691124  RH  024%=      5-min Rain = 0
KFL1 190053Z 29009KT 07/M13 A2999 RMK A01 T00681126  RH  024%=      5-min Rain = 0
KFL1 190054Z 29007KT 07/M12 A2999 RMK A01 T00691124  RH  024%=      5-min Rain = 0
KFL1 190055Z 29007KT 07/M13 A2999 RMK A01 T00671126  RH  024%=      5-min Rain = 0
KFL1 190056Z 29008KT 06/M13 A2999 RMK A01 T00641126  RH  024%=      5-min Rain = 0
KFL1 190057Z 29007KT 06/M12 A2999 RMK A01 T00621124  RH  025%=      5-min Rain = 0
KFL1 190058Z 30008KT 06/M13 A2999 RMK A01 T00601125  RH  025%=      5-min Rain = 0
KFL1 190059Z 30007KT 06/M13 A2999 RMK A01 T00591125  RH  025%=      5-min Rain = 0
KFL1 190100Z 30007KT 06/M12 A2999 RMK A01 T00601123  RH  026%=      5-min Rain = 0
KFL1 190101Z 30007KT 06/M13 A2999 RMK A01 T00571125  RH  026%=      5-min Rain = 0
KFL1 190102Z 30007KT 06/M12 A2999 RMK A01 T00571123  RH  026%=      5-min Rain = 0
KFL1 190103Z 30007KT 06/M12 A2999 RMK A01 T00551124  RH  026%=      5-min Rain = 0
KFL1 190104Z 30008KT 05/M13 A2999 RMK A01 T00521126  RH  026%=      5-min Rain = 0
KFL1 190105Z 30007KT 05/M13 A2999 RMK A01 T00511126  RH  026%=      5-min Rain = 0
KFL1 190106Z 30007KT 05/M13 A2999 RMK A01 T00501127  RH  027%=      5-min Rain = 0
KFL1 190107Z 30008KT 05/M12 A2999 RMK A01 T00521124  RH  027%=      5-min Rain = 0
KFL1 190108Z 30006KT 05/M13 A2999 RMK A01 T00501127  RH  027%=      5-min Rain = 0
KFL1 190109Z 30008KT 05/M13 A2999 RMK A01 T00481129  RH  026%=      5-min Rain = 0
KFL1 190110Z 30007KT 05/M13 A2999 RMK A01 T00491129  RH  026%=      5-min Rain = 0
KFL1 190111Z 31006KT 05/M13 A2999 RMK A01 T00501127  RH  026%=      5-min Rain = 0
KFL1 190112Z 31007KT 05/M13 A2999 RMK A01 T00481129  RH  026%=      5-min Rain = 0
KFL1 190113Z 30007KT 05/M13 A2999 RMK A01 T00491127  RH  027%=      5-min Rain = 0
KFL1 190114Z 30006KT 05/M13 A2999 RMK A01 T00471129  RH  027%=      5-min Rain = 0
KFL1 190115Z 31006KT 05/M13 A2999 RMK A01 T00461128  RH  027%=      5-min Rain = 0
KFL1 190116Z 31006KT 05/M13 A2999 RMK A01 T00461127  RH  027%=      5-min Rain = 0
KFL1 190117Z 30006KT 04/M13 A2999 RMK A01 T00431130  RH  027%=      5-min Rain = 0
KFL1 190118Z 30005KT 04/M13 A2999 RMK A01 T00421129  RH  027%=      5-min Rain = 0
KFL1 190119Z 30006KT 04/M13 A2999 RMK A01 T00421129  RH  028%=      5-min Rain = 0
KFL1 190120Z 30005KT 04/M13 A2999 RMK A01 T00421129  RH  028%=      5-min Rain = 0
KFL1 190121Z 30005KT 04/M13 A2999 RMK A01 T00401130  RH  028%=      5-min Rain = 0
KFL1 190122Z 30005KT 04/M13 A2999 RMK A01 T00391130  RH  028%=      5-min Rain = 0
KFL1 190123Z 30004KT 04/M13 A2999 RMK A01 T00411127  RH  028%=      5-min Rain = 0
KFL1 190124Z 30005KT 04/M13 A2999 RMK A01 T00391129  RH  028%=      5-min Rain = 0
KFL1 190125Z 30005KT 04/M13 A2999 RMK A01 T00381129  RH  028%=      5-min Rain = 0
KFL1 190126Z 30005KT 04/M13 A2999 RMK A01 T00391127  RH  029%=      5-min Rain = 0
KFL1 190127Z 30004KT 04/M13 A2999 RMK A01 T00381128  RH  028%=      5-min Rain = 0
KFL1 190128Z 30005KT 04/M13 A30 RMK A01 T00401125  RH  029%=      5-min Rain = 0
KFL1 190129Z 30004KT 04/M13 A30 RMK A01 T00381128  RH  029%=      5-min Rain = 0
KFL1 190130Z 30004KT 04/M13 A30 RMK A01 T00371128  RH  029%=      5-min Rain = 0
KFL1 190131Z 30004KT 04/M13 A30 RMK A01 T00371127  RH  029%=      5-min Rain = 0
KFL1 190132Z 30004KT 04/M13 A30 RMK A01 T00381127  RH  029%=      5-min Rain = 0
KFL1 190133Z 30004KT 04/M13 A30 RMK A01 T00371129  RH  029%=      5-min Rain = 0
KFL1 190134Z 31004KT 04/M13 A30 RMK A01 T00371128  RH  029%=      5-min Rain = 0
KFL1 190135Z 30005KT 04/M13 A30 RMK A01 T00381129  RH  029%=      5-min Rain = 0
KFL1 190136Z 30006KT 04/M13 A30 RMK A01 T00371126  RH  029%=      5-min Rain = 0
KFL1 190137Z 31006KT 04/M13 A30 RMK A01 T00391125  RH  029%=      5-min Rain = 0
KFL1 190138Z 30006KT 04/M13 A30 RMK A01 T00381127  RH  029%=      5-min Rain = 0
KFL1 190139Z 30006KT 04/M13 A30 RMK A01 T00381125  RH  029%=      5-min Rain = 0
KFL1 190140Z 30005KT 04/M13 A30 RMK A01 T00371125  RH  030%=      5-min Rain = 0
KFL1 190141Z 31006KT 04/M13 A30 RMK A01 T00361125  RH  030%=      5-min Rain = 0
KFL1 190142Z 31006KT 03/M13 A30 RMK A01 T00331126  RH  030%=      5-min Rain = 0
KFL1 190143Z 31005KT 03/M13 A30 RMK A01 T00331127  RH  030%=      5-min Rain = 0
KFL1 190144Z 30005KT 03/M13 A30 RMK A01 T00321127  RH  030%=      5-min Rain = 0
KFL1 190145Z 31005KT 03/M13 A30 RMK A01 T00331127  RH  030%=      5-min Rain = 0
KFL1 190146Z 31005KT 03/M13 A30 RMK A01 T00341126  RH  030%=      5-min Rain = 0
KFL1 190147Z 30006KT 03/M13 A30 RMK A01 T00341126  RH  030%=      5-min Rain = 0
KFL1 190148Z 30006KT 03/M13 A30 RMK A01 T00331127  RH  030%=      5-min Rain = 0
KFL1 190149Z 30006KT 03/M13 A30 RMK A01 T00311127  RH  030%=      5-min Rain = 0
KFL1 190150Z 30005KT 03/M12 A3001 RMK A01 T00331124  RH  031%=      5-min Rain = 0
KFL1 190151Z 30005KT 03/M13 A3001 RMK A01 T00331125  RH  031%=      5-min Rain = 0
KFL1 190152Z 29005KT 03/M13 A3001 RMK A01 T00321125  RH  031%=      5-min Rain = 0
KFL1 190153Z 29005KT 03/M13 A3001 RMK A01 T00311127  RH  030%=      5-min Rain = 0
KFL1 190154Z 29005KT 03/M13 A3001 RMK A01 T00341127  RH  030%=      5-min Rain = 0
KFL1 190155Z 29005KT 03/M13 A3001 RMK A01 T00341129  RH  029%=      5-min Rain = 0
KFL1 190156Z 29005KT 04/M13 A3001 RMK A01 T00361129  RH  029%=      5-min Rain = 0
KFL1 190157Z 30004KT 04/M13 A3001 RMK A01 T00391127  RH  029%=      5-min Rain = 0
KFL1 190158Z 30004KT 04/M13 A3001 RMK A01 T00371128  RH  029%=      5-min Rain = 0
KFL1 190159Z 31004KT 04/M13 A3001 RMK A01 T00361128  RH  029%=      5-min Rain = 0
KFL1 190200Z 31004KT 04/M13 A3001 RMK A01 T00361127  RH  029%=      5-min Rain = 0
KFL1 190201Z 31004KT 03/M12 A3001 RMK A01 T00341122  RH  031%=      5-min Rain = 0
KFL1 190202Z 31004KT 03/M12 A3001 RMK A01 T00331119  RH  032%=      5-min Rain = 0
KFL1 190203Z 31004KT 03/M12 A3001 RMK A01 T00281119  RH  033%=      5-min Rain = 0
KFL1 190204Z 32004KT 03/M12 A3001 RMK A01 T00281121  RH  033%=      5-min Rain = 0
KFL1 190205Z 32004KT 03/M11 A3001 RMK A01 T00261113  RH  035%=      5-min Rain = 0
KFL1 190206Z 32004KT 02/M11 A3001 RMK A01 T00151107  RH  040%=      5-min Rain = 0
KFL1 190207Z 32004KT 00/M10 A3001 RMK A01 T00011103  RH  045%=      5-min Rain = 0
KFL1 190208Z 33004KT M01/M10 A3001 RMK A01 T10101102  RH  050%=      5-min Rain = 0
KFL1 190209Z 33004KT M02/M10 A3001 RMK A01 T10161101  RH  052%=      5-min Rain = 0
KFL1 190210Z 35004KT M02/M10 A3001 RMK A01 T10221099  RH  055%=      5-min Rain = 0
KFL1 190211Z 35004KT M03/M10 A3001 RMK A01 T10271099  RH  058%=      5-min Rain = 0
KFL1 190212Z 34004KT M03/M10 A3001 RMK A01 T10291099  RH  059%=      5-min Rain = 0
KFL1 190213Z 34003KT M03/M10 A3001 RMK A01 T10301099  RH  059%=      5-min Rain = 0
KFL1 190214Z 34003KT M03/M10 A3001 RMK A01 T10311099  RH  059%=      5-min Rain = 0
KFL1 190215Z 33003KT M03/M10 A3001 RMK A01 T10301101  RH  058%=      5-min Rain = 0
KFL1 190216Z 33003KT M03/M10 A3001 RMK A01 T10311101  RH  058%=      5-min Rain = 0
KFL1 190217Z 33003KT M03/M10 A3001 RMK A01 T10331102  RH  059%=      5-min Rain = 0
KFL1 190218Z 32003KT M03/M10 A3002 RMK A01 T10341103  RH  059%=      5-min Rain = 0
KFL1 190219Z 32003KT M03/M10 A3002 RMK A01 T10291102  RH  057%=      5-min Rain = 0
KFL1 190220Z 32003KT M03/M10 A3002 RMK A01 T10251102  RH  055%=      5-min Rain = 0
KFL1 190221Z 31003KT M03/M10 A3002 RMK A01 T10281102  RH  057%=      5-min Rain = 0
KFL1 190222Z 31003KT M03/M10 A3002 RMK A01 T10321103  RH  058%=      5-min Rain = 0
KFL1 190223Z 31003KT M04/M10 A3002 RMK A01 T10361103  RH  060%=      5-min Rain = 0
KFL1 190224Z 32004KT M04/M10 A3002 RMK A01 T10371102  RH  061%=      5-min Rain = 0
KFL1 190225Z 32004KT M04/M10 A3002 RMK A01 T10391102  RH  061%=      5-min Rain = 0
KFL1 190226Z 33005KT M04/M10 A3002 RMK A01 T10381101  RH  062%=      5-min Rain = 0
KFL1 190227Z 31005KT M04/M10 A3002 RMK A01 T10401103  RH  062%=      5-min Rain = 0
KFL1 190228Z 32005KT M04/M10 A3002 RMK A01 T10361102  RH  060%=      5-min Rain = 0
KFL1 190229Z 31005KT M04/M11 A3002 RMK A01 T10351106  RH  058%=      5-min Rain = 0
KFL1 190230Z 31006KT M03/M11 A3002 RMK A01 T10331106  RH  057%=      5-min Rain = 0
KFL1 190231Z 31006KT M03/M11 A3002 RMK A01 T10331105  RH  057%=      5-min Rain = 0
KFL1 190232Z 31007KT M04/M11 A3002 RMK A01 T10361108  RH  058%=      5-min Rain = 0
KFL1 190233Z 31007KT M03/M11 A3002 RMK A01 T10331107  RH  057%=      5-min Rain = 0
KFL1 190234Z 31008KT M03/M11 A3002 RMK A01 T10341106  RH  058%=      5-min Rain = 0
KFL1 190235Z 31008KT M03/M10 A3002 RMK A01 T10331104  RH  058%=      5-min Rain = 0
KFL1 190236Z 31009KT M03/M11 A3002 RMK A01 T10341106  RH  057%=      5-min Rain = 0
KFL1 190237Z 31009KT M03/M11 A3002 RMK A01 T10271106  RH  055%=      5-min Rain = 0
KFL1 190238Z 31009KT M02/M11 A3002 RMK A01 T10221109  RH  051%=      5-min Rain = 0
KFL1 190239Z 31010KT M02/M11 A3002 RMK A01 T10171110  RH  049%=      5-min Rain = 0
KFL1 190240Z 31010KT M02/M11 A3002 RMK A01 T10181113  RH  048%=      5-min Rain = 0
KFL1 190241Z 31010KT M02/M11 A3002 RMK A01 T10151113  RH  047%=      5-min Rain = 0
KFL1 190242Z 31011KT M01/M11 A3002 RMK A01 T10111114  RH  045%=      5-min Rain = 0
KFL1 190243Z 31011KT M01/M12 A3002 RMK A01 T10081115  RH  044%=      5-min Rain = 0
KFL1 190244Z 31011KT M00/M12 A3002 RMK A01 T10041116  RH  043%=      5-min Rain = 0
KFL1 190245Z 31011KT 00/12 A3002 RMK A01 T00-00-118  RH  041%=      5-min Rain = 0
KFL1 190246Z 31011KT 00/M12 A3002 RMK A01 T00041118  RH  039%=      5-min Rain = 0
KFL1 190247Z 32011KT 01/M12 A3002 RMK A01 T00081119  RH  038%=      5-min Rain = 0
KFL1 190248Z 31011KT 01/M12 A3002 RMK A01 T00111120  RH  037%=      5-min Rain = 0
KFL1 190249Z 31012KT 02/M12 A3002 RMK A01 T00151120  RH  036%=      5-min Rain = 0
KFL1 190250Z 31012KT 02/M12 A3002 RMK A01 T00161123  RH  035%=      5-min Rain = 0
KFL1 190251Z 32012KT 02/M12 A3002 RMK A01 T00201123  RH  034%=      5-min Rain = 0
KFL1 190252Z 31012KT 02/M12 A3002 RMK A01 T00221124  RH  033%=      5-min Rain = 0
KFL1 190253Z 31011KT 03/M13 A3002 RMK A01 T00251125  RH  032%=      5-min Rain = 0
KFL1 190254Z 31011KT 03/M12 A3002 RMK A01 T00291124  RH  031%=      5-min Rain = 0
KFL1 190255Z 31012KT 03/M12 A3002 RMK A01 T00311124  RH  031%=      5-min Rain = 0
KFL1 190256Z 31011KT 03/M13 A3002 RMK A01 T00291126  RH  031%=      5-min Rain = 0
KFL1 190257Z 31011KT 03/M13 A3002 RMK A01 T00291127  RH  031%=      5-min Rain = 0
KFL1 190258Z 31011KT 03/M13 A3002 RMK A01 T00301127  RH  031%=      5-min Rain = 0
KFL1 190259Z 31010KT 03/M13 A3002 RMK A01 T00311127  RH  030%=      5-min Rain = 0
KFL1 190300Z 31010KT 03/M13 A3002 RMK A01 T00311128  RH  030%=      5-min Rain = 0
KFL1 190301Z 31010KT 03/M13 A3002 RMK A01 T00331126  RH  030%=      5-min Rain = 0
KFL1 190302Z 31010KT 03/M13 A3002 RMK A01 T00311128  RH  030%=      5-min Rain = 0
KFL1 190303Z 31010KT 03/M13 A3002 RMK A01 T00331126  RH  030%=      5-min Rain = 0
KFL1 190304Z 31009KT 03/M13 A3002 RMK A01 T00321127  RH  030%=      5-min Rain = 0
KFL1 190305Z 31009KT 03/M13 A3002 RMK A01 T00311128  RH  030%=      5-min Rain = 0
KFL1 190306Z 31009KT 03/M13 A3002 RMK A01 T00311127  RH  030%=      5-min Rain = 0
KFL1 190307Z 31009KT 03/M13 A3003 RMK A01 T00301127  RH  030%=      5-min Rain = 0
KFL1 190308Z 32008KT 03/M13 A3003 RMK A01 T00311125  RH  031%=      5-min Rain = 0
KFL1 190309Z 32009KT 03/M13 A3003 RMK A01 T00291127  RH  031%=      5-min Rain = 0
KFL1 190310Z 32009KT 03/M13 A3003 RMK A01 T00291127  RH  031%=      5-min Rain = 0
KFL1 190311Z 32009KT 03/M13 A3003 RMK A01 T00291126  RH  031%=      5-min Rain = 0
KFL1 190312Z 32009KT 03/M13 A3003 RMK A01 T00301125  RH  031%=      5-min Rain = 0
KFL1 190313Z 32008KT 03/M13 A3003 RMK A01 T00291126  RH  031%=      5-min Rain = 0
KFL1 190314Z 32008KT 03/M12 A3003 RMK A01 T00301124  RH  031%=      5-min Rain = 0
KFL1 190315Z 32009KT 03/M13 A3003 RMK A01 T00291125  RH  031%=      5-min Rain = 0
KFL1 190316Z 32009KT 03/M12 A3003 RMK A01 T00311123  RH  031%=      5-min Rain = 0
KFL1 190317Z 32009KT 03/M13 A3003 RMK A01 T00291125  RH  031%=      5-min Rain = 0
KFL1 190318Z 32009KT 03/M13 A3003 RMK A01 T00291126  RH  031%=      5-min Rain = 0
KFL1 190319Z 31010KT 03/M13 A3003 RMK A01 T00291127  RH  031%=      5-min Rain = 0
KFL1 190320Z 32010KT 03/M13 A3003 RMK A01 T00311126  RH  031%=      5-min Rain = 0
KFL1 190321Z 32010KT 03/M13 A3003 RMK A01 T00311128  RH  030%=      5-min Rain = 0
KFL1 190322Z 31010KT 03/M13 A3003 RMK A01 T00311129  RH  030%=      5-min Rain = 0
KFL1 190323Z 31010KT 03/M13 A3003 RMK A01 T00311130  RH  030%=      5-min Rain = 0
KFL1 190324Z 31010KT 03/M13 A3003 RMK A01 T00341128  RH  029%=      5-min Rain = 0
KFL1 190325Z 31010KT 03/M13 A3003 RMK A01 T00331130  RH  029%=      5-min Rain = 0
KFL1 190326Z 31010KT 03/M13 A3003 RMK A01 T00331130  RH  029%=      5-min Rain = 0
KFL1 190327Z 31009KT 04/M13 A3003 RMK A01 T00371128  RH  029%=      5-min Rain = 0
KFL1 190328Z 31009KT 04/M13 A3003 RMK A01 T00351131  RH  029%=      5-min Rain = 0
KFL1 190329Z 31010KT 04/M13 A3003 RMK A01 T00371129  RH  029%=      5-min Rain = 0
KFL1 190330Z 31009KT 04/M13 A3003 RMK A01 T00361129  RH  029%=      5-min Rain = 0
KFL1 190331Z 31009KT 04/M13 A3003 RMK A01 T00361129  RH  029%=      5-min Rain = 0
KFL1 190332Z 31009KT 03/M13 A3003 RMK A01 T00341131  RH  029%=      5-min Rain = 0
KFL1 190333Z 31010KT 03/M13 A3003 RMK A01 T00331131  RH  029%=      5-min Rain = 0
KFL1 190334Z 31010KT 03/M13 A3003 RMK A01 T00321131  RH  029%=      5-min Rain = 0
KFL1 190335Z 31009KT 03/M13 A3003 RMK A01 T00321131  RH  029%=      5-min Rain = 0
KFL1 190336Z 31009KT 03/M13 A3003 RMK A01 T00341130  RH  029%=      5-min Rain = 0
KFL1 190337Z 31010KT 03/M13 A3003 RMK A01 T00321132  RH  029%=      5-min Rain = 0
KFL1 190338Z 31010KT 03/M13 A3003 RMK A01 T00311133  RH  029%=      5-min Rain = 0
KFL1 190339Z 31009KT 03/M13 A3003 RMK A01 T00341130  RH  029%=      5-min Rain = 0
KFL1 190340Z 30010KT 03/M13 A3003 RMK A01 T00331131  RH  029%=      5-min Rain = 0
KFL1 190341Z 30010KT 03/M13 A3003 RMK A01 T00341130  RH  029%=      5-min Rain = 0
KFL1 190342Z 31010KT 03/M13 A3003 RMK A01 T00341130  RH  029%=      5-min Rain = 0
KFL1 190343Z 30010KT 03/M13 A3003 RMK A01 T00341130  RH  029%=      5-min Rain = 0
KFL1 190344Z 31010KT 04/M13 A3003 RMK A01 T00351129  RH  029%=      5-min Rain = 0
KFL1 190345Z 31009KT 03/M13 A3003 RMK A01 T00331131  RH  029%=      5-min Rain = 0
KFL1 190346Z 31010KT 03/M13 A3003 RMK A01 T00341131  RH  029%=      5-min Rain = 0
KFL1 190347Z 30010KT 03/M13 A3003 RMK A01 T00341131  RH  029%=      5-min Rain = 0
KFL1 190348Z 30010KT 03/M13 A3003 RMK A01 T00341130  RH  029%=      5-min Rain = 0
KFL1 190349Z 31011KT 03/M13 A3003 RMK A01 T00331132  RH  029%=      5-min Rain = 0
KFL1 190350Z 30010KT 03/M13 A3003 RMK A01 T00331132  RH  029%=      5-min Rain = 0
KFL1 190351Z 31009KT 03/M13 A3003 RMK A01 T00341131  RH  029%=      5-min Rain = 0
KFL1 190352Z 31010KT 03/M13 A3003 RMK A01 T00341132  RH  028%=      5-min Rain = 0
KFL1 190353Z 31010KT 04/M13 A3003 RMK A01 T00361130  RH  029%=      5-min Rain = 0
KFL1 190354Z 31009KT 03/M13 A3004 RMK A01 T00341131  RH  029%=      5-min Rain = 0
KFL1 190355Z 31009KT 03/M13 A3004 RMK A01 T00341130  RH  029%=      5-min Rain = 0
KFL1 190356Z 31009KT 03/M13 A3003 RMK A01 T00331131  RH  029%=      5-min Rain = 0
KFL1 190357Z 31009KT 03/M13 A3004 RMK A01 T00321132  RH  029%=      5-min Rain = 0
KFL1 190358Z 31008KT 03/M13 A3004 RMK A01 T00311132  RH  029%=      5-min Rain = 0
KFL1 190359Z 31009KT 03/M13 A3004 RMK A01 T00321130  RH  029%=      5-min Rain = 0
KFL1 190400Z 31008KT 03/M13 A3004 RMK A01 T00301132  RH  029%=      5-min Rain = 0
KFL1 190401Z 31008KT 03/M13 A3004 RMK A01 T00291133  RH  029%=      5-min Rain = 0
KFL1 190402Z 31007KT 03/M13 A3004 RMK A01 T00301131  RH  030%=      5-min Rain = 0
KFL1 190403Z 31007KT 03/M13 A3004 RMK A01 T00281131  RH  030%=      5-min Rain = 0
KFL1 190404Z 31007KT 03/M13 A3004 RMK A01 T00261132  RH  030%=      5-min Rain = 0
KFL1 190405Z 31007KT 03/M13 A3004 RMK A01 T00251130  RH  031%=      5-min Rain = 0
KFL1 190406Z 31007KT 02/M13 A3004 RMK A01 T00241131  RH  031%=      5-min Rain = 0
KFL1 190407Z 31007KT 02/M13 A3004 RMK A01 T00221131  RH  031%=      5-min Rain = 0
KFL1 190408Z 31008KT 02/M13 A3004 RMK A01 T00231129  RH  032%=      5-min Rain = 0
KFL1 190409Z 32008KT 02/M13 A3004 RMK A01 T00211129  RH  032%=      5-min Rain = 0
KFL1 190410Z 31008KT 02/M13 A3004 RMK A01 T00191131  RH  032%=      5-min Rain = 0
KFL1 190411Z 32009KT 02/M13 A3004 RMK A01 T00181130  RH  033%=      5-min Rain = 0
KFL1 190412Z 32009KT 02/M13 A3004 RMK A01 T00171129  RH  033%=      5-min Rain = 0
KFL1 190413Z 32009KT 02/M13 A3004 RMK A01 T00151130  RH  033%=      5-min Rain = 0
KFL1 190414Z 32009KT 02/M13 A3004 RMK A01 T00151130  RH  033%=      5-min Rain = 0
KFL1 190415Z 32010KT 02/M13 A3004 RMK A01 T00151130  RH  033%=      5-min Rain = 0
KFL1 190416Z 32010KT 02/M13 A3004 RMK A01 T00161130  RH  033%=      5-min Rain = 0
KFL1 190417Z 32010KT 02/M13 A3004 RMK A01 T00161131  RH  033%=      5-min Rain = 0
KFL1 190418Z 32010KT 02/M13 A3004 RMK A01 T00191128  RH  032%=      5-min Rain = 0
KFL1 190419Z 32009KT 02/M13 A3004 RMK A01 T00201130  RH  032%=      5-min Rain = 0
KFL1 190420Z 32009KT 02/M13 A3004 RMK A01 T00201130  RH  032%=      5-min Rain = 0
KFL1 190421Z 33009KT 02/M13 A3004 RMK A01 T00201131  RH  032%=      5-min Rain = 0
KFL1 190422Z 33009KT 02/M13 A3004 RMK A01 T00231130  RH  032%=      5-min Rain = 0
KFL1 190423Z 33010KT 02/M13 A3004 RMK A01 T00231130  RH  031%=      5-min Rain = 0
KFL1 190424Z 33008KT 02/M13 A3004 RMK A01 T00241129  RH  031%=      5-min Rain = 0
KFL1 190425Z 33009KT 02/M13 A3004 RMK A01 T00221132  RH  031%=      5-min Rain = 0
KFL1 190426Z 33008KT 02/M13 A3004 RMK A01 T00231133  RH  031%=      5-min Rain = 0
KFL1 190427Z 33009KT 02/M13 A3004 RMK A01 T00241132  RH  031%=      5-min Rain = 0
KFL1 190428Z 32008KT 02/M13 A3004 RMK A01 T00231133  RH  031%=      5-min Rain = 0
KFL1 190429Z 32008KT 02/M13 A3004 RMK A01 T00221134  RH  030%=      5-min Rain = 0
KFL1 190430Z 32008KT 02/M13 A3004 RMK A01 T00241133  RH  030%=      5-min Rain = 0
KFL1 190431Z 32009KT 02/M14 A3004 RMK A01 T00221135  RH  030%=      5-min Rain = 0
KFL1 190432Z 33008KT 02/M13 A3004 RMK A01 T00241134  RH  030%=      5-min Rain = 0
KFL1 190433Z 32009KT 02/M13 A3004 RMK A01 T00241134  RH  030%=      5-min Rain = 0
KFL1 190434Z 33008KT 03/M13 A3004 RMK A01 T00251131  RH  031%=      5-min Rain = 0
KFL1 190435Z 32007KT 02/M13 A3004 RMK A01 T00211133  RH  031%=      5-min Rain = 0
KFL1 190436Z 32007KT 02/M13 A3004 RMK A01 T00201134  RH  031%=      5-min Rain = 0
KFL1 190437Z 32008KT 02/M14 A3004 RMK A01 T00191135  RH  031%=      5-min Rain = 0
KFL1 190438Z 31007KT 02/M13 A3004 RMK A01 T00201134  RH  031%=      5-min Rain = 0
KFL1 190439Z 31007KT 02/M14 A3004 RMK A01 T00191135  RH  031%=      5-min Rain = 0
KFL1 190440Z 32007KT 02/M14 A3004 RMK A01 T00191135  RH  031%=      5-min Rain = 0
KFL1 190441Z 32007KT 02/M13 A3004 RMK A01 T00211133  RH  031%=      5-min Rain = 0
KFL1 190442Z 31007KT 02/M13 A3004 RMK A01 T00211133  RH  031%=      5-min Rain = 0
KFL1 190443Z 32006KT 02/M13 A3005 RMK A01 T00221132  RH  031%=      5-min Rain = 0
KFL1 190444Z 32007KT 02/M13 A3005 RMK A01 T00211134  RH  031%=      5-min Rain = 0
KFL1 190445Z 32006KT 02/M13 A3005 RMK A01 T00241133  RH  030%=      5-min Rain = 0
KFL1 190446Z 32007KT 03/M13 A3005 RMK A01 T00261133  RH  030%=      5-min Rain = 0
KFL1 190447Z 32007KT 03/M14 A3005 RMK A01 T00251135  RH  030%=      5-min Rain = 0
KFL1 190448Z 32007KT 03/M14 A3005 RMK A01 T00251135  RH  030%=      5-min Rain = 0
KFL1 190449Z 32007KT 03/M13 A3005 RMK A01 T00251133  RH  030%=      5-min Rain = 0
KFL1 190450Z 32007KT 02/M13 A3005 RMK A01 T00231133  RH  031%=      5-min Rain = 0
KFL1 190451Z 32007KT 02/M13 A3005 RMK A01 T00211133  RH  031%=      5-min Rain = 0
KFL1 190452Z 32007KT 02/M13 A3005 RMK A01 T00201132  RH  031%=      5-min Rain = 0
KFL1 190453Z 32007KT 02/M13 A3005 RMK A01 T00201133  RH  031%=      5-min Rain = 0
KFL1 190454Z 32007KT 02/M13 A3005 RMK A01 T00191134  RH  031%=      5-min Rain = 0
KFL1 190455Z 32007KT 02/M14 A3005 RMK A01 T00201135  RH  031%=      5-min Rain = 0
KFL1 190456Z 32007KT 02/M13 A3005 RMK A01 T00211132  RH  031%=      5-min Rain = 0
KFL1 190457Z 32007KT 02/M13 A3005 RMK A01 T00181133  RH  032%=      5-min Rain = 0
KFL1 190458Z 32007KT 02/M13 A3005 RMK A01 T00171132  RH  032%=      5-min Rain = 0
KFL1 190459Z 31008KT 02/M13 A3005 RMK A01 T00171133  RH  032%=      5-min Rain = 0

Page generated in 0.0818 seconds.